<?xml version="1.0" encoding="UTF-8"?>
<gpx xmlns="http://www.topografix.com/GPX/1/1" xmlns:ns2="http://www.garmin.com/xmlschemas/GpxExtensions/v3" xmlns:ns3="http://www.garmin.com/xmlschemas/TrackPointExtension/v1" xmlns:xsi="http://www.w3.org/2001/XMLSchema-instance" xsi:schemaLocation="http://www.topografix.com/GPX/1/1 http://www.topografix.com/GPX/11.xsd" version="1.1" creator="Garmin Connect">
  <metadata>
    <name>VR - Road 15 Vallio/Barghe</name>
    <link href="connect.garmin.com">
      <text>Garmin Connect</text>
    </link>
    <time>2017-11-22T11:13:29Z</time>
  </metadata>
  <trk>
    <trkseg>
      <trkpt lat="45.61185412108899" lon="10.480644972994943">
        <ele>225.0</ele>
        <time>2017-11-22T11:13:29Z</time>
      </trkpt>
      <trkpt lat="45.61180114746094" lon="10.480570793151855">
        <ele>224.7373032529607</ele>
        <time>2017-11-22T11:13:29.119000Z</time>
      </trkpt>
      <trkpt lat="45.61156511306763" lon="10.480399131774902">
        <ele>223.79914089111097</ele>
        <time>2017-11-22T11:13:29.544000Z</time>
      </trkpt>
      <trkpt lat="45.61077126301825" lon="10.479090213775635">
        <ele>222.74774388195365</ele>
        <time>2017-11-22T11:13:31.487000Z</time>
      </trkpt>
      <trkpt lat="45.610127532854676" lon="10.478103160858154">
        <ele>225.0</ele>
        <time>2017-11-22T11:13:33Z</time>
      </trkpt>
      <trkpt lat="45.609994174308994" lon="10.477963599589387">
        <ele>222.877828127164</ele>
        <time>2017-11-22T11:13:33.265000Z</time>
      </trkpt>
      <trkpt lat="45.60999392531812" lon="10.477963350713253">
        <ele>222.87766553289873</ele>
        <time>2017-11-22T11:13:33.265000Z</time>
      </trkpt>
      <trkpt lat="45.60920485295355" lon="10.477137565612793">
        <ele>222.68764436547266</ele>
        <time>2017-11-22T11:13:34.833000Z</time>
      </trkpt>
      <trkpt lat="45.60877561569214" lon="10.476429462432861">
        <ele>222.3368660241869</ele>
        <time>2017-11-22T11:13:35.884000Z</time>
      </trkpt>
      <trkpt lat="45.60877569951117" lon="10.476429462432861">
        <ele>222.3367686229789</ele>
        <time>2017-11-22T11:13:35.884000Z</time>
      </trkpt>
      <trkpt lat="45.60849674977362" lon="10.475914478302002">
        <ele>221.8073058028559</ele>
        <time>2017-11-22T11:13:36.614000Z</time>
      </trkpt>
      <trkpt lat="45.60836800374091" lon="10.475678443908691">
        <ele>221.02919331688108</ele>
        <time>2017-11-22T11:13:36.950000Z</time>
      </trkpt>
      <trkpt lat="45.60830363072455" lon="10.475528240203857">
        <ele>221.29693717310124</ele>
        <time>2017-11-22T11:13:37.148000Z</time>
      </trkpt>
      <trkpt lat="45.607380867004395" lon="10.471880435943604">
        <ele>221.0</ele>
        <time>2017-11-22T11:13:41.498000Z</time>
      </trkpt>
      <trkpt lat="45.60643672943115" lon="10.46870470046997">
        <ele>216.0</ele>
        <time>2017-11-22T11:13:45.368000Z</time>
      </trkpt>
      <trkpt lat="45.605621337890625" lon="10.46597957611084">
        <ele>217.0</ele>
        <time>2017-11-22T11:13:48.692000Z</time>
      </trkpt>
      <trkpt lat="45.60527801513672" lon="10.464863777160645">
        <ele>216.0</ele>
        <time>2017-11-22T11:13:50.059000Z</time>
      </trkpt>
      <trkpt lat="45.6052565574646" lon="10.464799404144287">
        <ele>216.0081606864591</ele>
        <time>2017-11-22T11:13:50.139000Z</time>
      </trkpt>
      <trkpt lat="45.605106353759766" lon="10.464284420013428">
        <ele>216.07201514411494</ele>
        <time>2017-11-22T11:13:50.765000Z</time>
      </trkpt>
      <trkpt lat="45.60495623387396" lon="10.463769435882568">
        <ele>216.13586447230583</ele>
        <time>2017-11-22T11:13:51.391000Z</time>
      </trkpt>
      <trkpt lat="45.60476311482489" lon="10.463147163391113">
        <ele>216.61652629173386</ele>
        <time>2017-11-22T11:13:52.155000Z</time>
      </trkpt>
      <trkpt lat="45.60448416508734" lon="10.462181568145752">
        <ele>216.84261702074255</ele>
        <time>2017-11-22T11:13:53.327000Z</time>
      </trkpt>
      <trkpt lat="45.60405501164496" lon="10.460765361785889">
        <ele>216.5337585599274</ele>
        <time>2017-11-22T11:13:55.058000Z</time>
      </trkpt>
      <trkpt lat="45.603861808776855" lon="10.460100173950195">
        <ele>216.31617682268816</ele>
        <time>2017-11-22T11:13:55.866000Z</time>
      </trkpt>
      <trkpt lat="45.603947723284364" lon="10.460057258605957">
        <ele>216.19620493402337</ele>
        <time>2017-11-22T11:13:56.012000Z</time>
      </trkpt>
      <trkpt lat="45.60394763946533" lon="10.460057258605957">
        <ele>216.1960944410263</ele>
        <time>2017-11-22T11:13:56.012000Z</time>
      </trkpt>
      <trkpt lat="45.60371160507202" lon="10.45947790145874">
        <ele>215.9111173749885</ele>
        <time>2017-11-22T11:13:56.764000Z</time>
      </trkpt>
      <trkpt lat="45.603346824645996" lon="10.45823335647583">
        <ele>213.0</ele>
        <time>2017-11-22T11:13:58.277000Z</time>
      </trkpt>
      <trkpt lat="45.60343265533447" lon="10.457890033721924">
        <ele>213.38088627078864</ele>
        <time>2017-11-22T11:13:58.686000Z</time>
      </trkpt>
      <trkpt lat="45.6036346300286" lon="10.457719183547036">
        <ele>213.73134508475178</ele>
        <time>2017-11-22T11:13:59.062000Z</time>
      </trkpt>
      <trkpt lat="45.603634994477034" lon="10.457718875259161">
        <ele>213.73197746253467</ele>
        <time>2017-11-22T11:13:59.062000Z</time>
      </trkpt>
      <trkpt lat="45.603634910658" lon="10.457718875259161">
        <ele>213.73210262614143</ele>
        <time>2017-11-22T11:13:59.062000Z</time>
      </trkpt>
      <trkpt lat="45.60371160507202" lon="10.457653999328613">
        <ele>213.86517992262145</ele>
        <time>2017-11-22T11:13:59.205000Z</time>
      </trkpt>
      <trkpt lat="45.60375460423529" lon="10.457632541656494">
        <ele>213.93318955428984</ele>
        <time>2017-11-22T11:13:59.278000Z</time>
      </trkpt>
      <trkpt lat="45.603883350268006" lon="10.457568168640137">
        <ele>214.1368639293316</ele>
        <time>2017-11-22T11:13:59.497000Z</time>
      </trkpt>
      <trkpt lat="45.60403355397284" lon="10.45750379562378">
        <ele>214.7539574385386</ele>
        <time>2017-11-22T11:13:59.748000Z</time>
      </trkpt>
      <trkpt lat="45.604183757677674" lon="10.457439422607422">
        <ele>217.3710508114625</ele>
        <time>2017-11-22T11:13:59.999000Z</time>
      </trkpt>
      <trkpt lat="45.604441249743104" lon="10.457353591918945">
        <ele>218.4115460294639</ele>
        <time>2017-11-22T11:14:00.423000Z</time>
      </trkpt>
      <trkpt lat="45.60450553894043" lon="10.457332134246826">
        <ele>218.88557999503905</ele>
        <time>2017-11-22T11:14:00.529000Z</time>
      </trkpt>
      <trkpt lat="45.604767080235064" lon="10.457211313541574">
        <ele>220.85916655277174</ele>
        <time>2017-11-22T11:14:00.970000Z</time>
      </trkpt>
      <trkpt lat="45.604767724871635" lon="10.457211015745997">
        <ele>220.8640309726858</ele>
        <time>2017-11-22T11:14:00.971000Z</time>
      </trkpt>
      <trkpt lat="45.6047678925097" lon="10.457211015745997">
        <ele>220.86523466531335</ele>
        <time>2017-11-22T11:14:00.972000Z</time>
      </trkpt>
      <trkpt lat="45.60478457249701" lon="10.457203388214111">
        <ele>220.99098180269092</ele>
        <time>2017-11-22T11:14:01Z</time>
      </trkpt>
      <trkpt lat="45.6048059463501" lon="10.457203388214111">
        <ele>221.14445261269938</ele>
        <time>2017-11-22T11:14:01.034000Z</time>
      </trkpt>
      <trkpt lat="45.60472011566162" lon="10.456838607788086">
        <ele>223.0777422654867</ele>
        <time>2017-11-22T11:14:01.466000Z</time>
      </trkpt>
      <trkpt lat="45.60467720031738" lon="10.456452369689941">
        <ele>226.7089458812127</ele>
        <time>2017-11-22T11:14:01.905000Z</time>
      </trkpt>
      <trkpt lat="45.6046986579895" lon="10.455679893493652">
        <ele>237.17563178406212</ele>
        <time>2017-11-22T11:14:02.772000Z</time>
      </trkpt>
      <trkpt lat="45.60422658920288" lon="10.453448295593262">
        <ele>263.0</ele>
        <time>2017-11-22T11:14:05.387000Z</time>
      </trkpt>
      <trkpt lat="45.60400619178318" lon="10.452772846276067">
        <ele>243.68352653697931</ele>
        <time>2017-11-22T11:14:06.223000Z</time>
      </trkpt>
      <trkpt lat="45.60400631278753" lon="10.452773217111826">
        <ele>243.68216237304645</ele>
        <time>2017-11-22T11:14:06.223000Z</time>
      </trkpt>
      <trkpt lat="45.6040062289685" lon="10.45277296565473">
        <ele>243.68123376504926</ele>
        <time>2017-11-22T11:14:06.223000Z</time>
      </trkpt>
      <trkpt lat="45.60356140136719" lon="10.451409816741943">
        <ele>239.0</ele>
        <time>2017-11-22T11:14:07.910000Z</time>
      </trkpt>
      <trkpt lat="45.60347557067871" lon="10.451087951660156">
        <ele>238.61132746399426</ele>
        <time>2017-11-22T11:14:08.296000Z</time>
      </trkpt>
      <trkpt lat="45.60296058654785" lon="10.449671745300293">
        <ele>233.81035474568873</ele>
        <time>2017-11-22T11:14:10.086000Z</time>
      </trkpt>
      <trkpt lat="45.60292918526698" lon="10.449514738891985">
        <ele>234.94649991725205</ele>
        <time>2017-11-22T11:14:10.269000Z</time>
      </trkpt>
      <trkpt lat="45.602928986772895" lon="10.44951374642551">
        <ele>234.9536817027017</ele>
        <time>2017-11-22T11:14:10.269000Z</time>
      </trkpt>
      <trkpt lat="45.60292890295386" lon="10.449513494968414">
        <ele>234.95561966412598</ele>
        <time>2017-11-22T11:14:10.269000Z</time>
      </trkpt>
      <trkpt lat="45.602896213531494" lon="10.449349880218506">
        <ele>236.13949381086059</ele>
        <time>2017-11-22T11:14:10.460000Z</time>
      </trkpt>
      <trkpt lat="45.60257434844971" lon="10.448555946350098">
        <ele>246.85710414614957</ele>
        <time>2017-11-22T11:14:11.489000Z</time>
      </trkpt>
      <trkpt lat="45.60253143310547" lon="10.44823408126831">
        <ele>254.50287133418877</ele>
        <time>2017-11-22T11:14:11.857000Z</time>
      </trkpt>
      <trkpt lat="45.6023383140564" lon="10.447525978088379">
        <ele>237.16633665072314</ele>
        <time>2017-11-22T11:14:12.709000Z</time>
      </trkpt>
      <trkpt lat="45.60218811035156" lon="10.446774959564209">
        <ele>234.7001361404887</ele>
        <time>2017-11-22T11:14:13.585000Z</time>
      </trkpt>
      <trkpt lat="45.602176375663205" lon="10.44622728489483">
        <ele>232.0</ele>
        <time>2017-11-22T11:14:14.200000Z</time>
      </trkpt>
      <trkpt lat="45.60217637568712" lon="10.446227034553885">
        <ele>232.00050875175188</ele>
        <time>2017-11-22T11:14:14.200000Z</time>
      </trkpt>
      <trkpt lat="45.602145195007324" lon="10.44475793838501">
        <ele>233.32076748800966</ele>
        <time>2017-11-22T11:14:15.849000Z</time>
      </trkpt>
      <trkpt lat="45.60205936431885" lon="10.444457530975342">
        <ele>236.59014302617842</ele>
        <time>2017-11-22T11:14:16.213000Z</time>
      </trkpt>
      <trkpt lat="45.60201644897461" lon="10.443878173828125">
        <ele>246.12668445518145</ele>
        <time>2017-11-22T11:14:16.866000Z</time>
      </trkpt>
      <trkpt lat="45.601844787597656" lon="10.443363189697266">
        <ele>251.87416735464683</ele>
        <time>2017-11-22T11:14:17.506000Z</time>
      </trkpt>
      <trkpt lat="45.60175895690918" lon="10.443191528320312">
        <ele>262.0</ele>
        <time>2017-11-22T11:14:17.743000Z</time>
      </trkpt>
      <trkpt lat="45.60152292251587" lon="10.442976951599121">
        <ele>251.8094318158461</ele>
        <time>2017-11-22T11:14:18.191000Z</time>
      </trkpt>
      <trkpt lat="45.60124397277832" lon="10.442912578582764">
        <ele>248.58659232598598</ele>
        <time>2017-11-22T11:14:18.644000Z</time>
      </trkpt>
      <trkpt lat="45.6006646156311" lon="10.442655086517334">
        <ele>234.3331360563477</ele>
        <time>2017-11-22T11:14:19.617000Z</time>
      </trkpt>
      <trkpt lat="45.600149631500244" lon="10.442032814025879">
        <ele>233.97485911004023</ele>
        <time>2017-11-22T11:14:20.698000Z</time>
      </trkpt>
      <trkpt lat="45.59991014678137" lon="10.441673545118611">
        <ele>219.40779983016554</ele>
        <time>2017-11-22T11:14:21.255000Z</time>
      </trkpt>
      <trkpt lat="45.59990965761244" lon="10.441672811284661">
        <ele>219.40278279024986</ele>
        <time>2017-11-22T11:14:21.256000Z</time>
      </trkpt>
      <trkpt lat="45.59990957379341" lon="10.441672643646598">
        <ele>219.40176289515333</ele>
        <time>2017-11-22T11:14:21.256000Z</time>
      </trkpt>
      <trkpt lat="45.59954881668091" lon="10.441131591796875">
        <ele>219.70225920764184</ele>
        <time>2017-11-22T11:14:22.094000Z</time>
      </trkpt>
      <trkpt lat="45.59929132461548" lon="10.440917015075684">
        <ele>219.0440160756577</ele>
        <time>2017-11-22T11:14:22.572000Z</time>
      </trkpt>
      <trkpt lat="45.59894800186157" lon="10.440294742584229">
        <ele>213.81953246303496</ele>
        <time>2017-11-22T11:14:23.461000Z</time>
      </trkpt>
      <trkpt lat="45.598948085680604" lon="10.440294742584229">
        <ele>213.8193473575243</ele>
        <time>2017-11-22T11:14:23.461000Z</time>
      </trkpt>
      <trkpt lat="45.59851884841919" lon="10.43975830078125">
        <ele>214.22679889279186</ele>
        <time>2017-11-22T11:14:24.375000Z</time>
      </trkpt>
      <trkpt lat="45.59823989868164" lon="10.439350605010986">
        <ele>211.38853701637314</ele>
        <time>2017-11-22T11:14:25.015000Z</time>
      </trkpt>
      <trkpt lat="45.59817896453544" lon="10.439350605011">
        <ele>211.65493419868787</ele>
        <time>2017-11-22T11:14:25.113000Z</time>
      </trkpt>
      <trkpt lat="45.59817770496011" lon="10.439350605010986">
        <ele>211.6604409193201</ele>
        <time>2017-11-22T11:14:25.115000Z</time>
      </trkpt>
      <trkpt lat="45.59823989868164" lon="10.439350605009986">
        <ele>211.93234482226708</ele>
        <time>2017-11-22T11:14:25.215000Z</time>
      </trkpt>
      <trkpt lat="45.59847593307495" lon="10.439050197601318">
        <ele>217.64744314995627</ele>
        <time>2017-11-22T11:14:25.722000Z</time>
      </trkpt>
      <trkpt lat="45.598948085680604" lon="10.438706874847412">
        <ele>219.96343530738832</ele>
        <time>2017-11-22T11:14:26.571000Z</time>
      </trkpt>
      <trkpt lat="45.59905529022217" lon="10.438578128814697">
        <ele>220.76871059047548</ele>
        <time>2017-11-22T11:14:26.795000Z</time>
      </trkpt>
      <trkpt lat="45.59913212870078" lon="10.438369448178932">
        <ele>221.71756705156318</ele>
        <time>2017-11-22T11:14:27.060000Z</time>
      </trkpt>
      <trkpt lat="45.59913257136941" lon="10.438368245959282">
        <ele>221.72303345678404</ele>
        <time>2017-11-22T11:14:27.062000Z</time>
      </trkpt>
      <trkpt lat="45.59913248755038" lon="10.438368413597345">
        <ele>221.72386252485435</ele>
        <time>2017-11-22T11:14:27.063000Z</time>
      </trkpt>
      <trkpt lat="45.599205493927" lon="10.438170433044434">
        <ele>224.95768769955976</ele>
        <time>2017-11-22T11:14:27.314000Z</time>
      </trkpt>
      <trkpt lat="45.5995059851557" lon="10.437548160552979">
        <ele>228.0</ele>
        <time>2017-11-22T11:14:28.162000Z</time>
      </trkpt>
      <trkpt lat="45.600128173828125" lon="10.436947345733643">
        <ele>235.9186876752307</ele>
        <time>2017-11-22T11:14:29.366000Z</time>
      </trkpt>
      <trkpt lat="45.60046131344909" lon="10.435832128770095">
        <ele>233.33333333333334</ele>
        <time>2017-11-22T11:14:30.726000Z</time>
      </trkpt>
      <trkpt lat="45.60046118684113" lon="10.435832552611828">
        <ele>233.33268159188276</ele>
        <time>2017-11-22T11:14:30.726000Z</time>
      </trkpt>
      <trkpt lat="45.6004611030221" lon="10.43583263643086">
        <ele>233.33247482000152</ele>
        <time>2017-11-22T11:14:30.726000Z</time>
      </trkpt>
      <trkpt lat="45.600621700286865" lon="10.435295104980469">
        <ele>232.50589209499321</ele>
        <time>2017-11-22T11:14:31.382000Z</time>
      </trkpt>
      <trkpt lat="45.60075044631958" lon="10.43400764465332">
        <ele>228.0</ele>
        <time>2017-11-22T11:14:32.841000Z</time>
      </trkpt>
      <trkpt lat="45.60100793838501" lon="10.432569980621338">
        <ele>248.16047162713207</ele>
        <time>2017-11-22T11:14:34.506000Z</time>
      </trkpt>
      <trkpt lat="45.60105085372925" lon="10.431904792785645">
        <ele>250.90029938335238</ele>
        <time>2017-11-22T11:14:35.255000Z</time>
      </trkpt>
      <trkpt lat="45.60105085373051" lon="10.431745692264029">
        <ele>251.2588051020343</ele>
        <time>2017-11-22T11:14:35.433000Z</time>
      </trkpt>
      <trkpt lat="45.60105085372925" lon="10.431743860244751">
        <ele>251.26293324304285</ele>
        <time>2017-11-22T11:14:35.435000Z</time>
      </trkpt>
      <trkpt lat="45.60105093754828" lon="10.431668758392334">
        <ele>251.43216259262354</ele>
        <time>2017-11-22T11:14:35.519000Z</time>
      </trkpt>
      <trkpt lat="45.60100793838501" lon="10.431132316589355">
        <ele>255.98218262373507</ele>
        <time>2017-11-22T11:14:36.125000Z</time>
      </trkpt>
      <trkpt lat="45.60105085372925" lon="10.430703163146973">
        <ele>255.94102132840757</ele>
        <time>2017-11-22T11:14:36.611000Z</time>
      </trkpt>
      <trkpt lat="45.60098648071289" lon="10.429587364196777">
        <ele>254.50138559845996</ele>
        <time>2017-11-22T11:14:37.867000Z</time>
      </trkpt>
      <trkpt lat="45.60108953763122" lon="10.427823563211993">
        <ele>254.0</ele>
        <time>2017-11-22T11:14:39.852000Z</time>
      </trkpt>
      <trkpt lat="45.60108941048384" lon="10.427825739607215">
        <ele>253.99247759968407</ele>
        <time>2017-11-22T11:14:39.854000Z</time>
      </trkpt>
      <trkpt lat="45.60108941048384" lon="10.42782548815012">
        <ele>253.99161148818771</ele>
        <time>2017-11-22T11:14:39.854000Z</time>
      </trkpt>
      <trkpt lat="45.601158225908875" lon="10.426647663116455">
        <ele>247.25395965620496</ele>
        <time>2017-11-22T11:14:41.180000Z</time>
      </trkpt>
      <trkpt lat="45.60117959976196" lon="10.425317287445068">
        <ele>245.0</ele>
        <time>2017-11-22T11:14:42.673000Z</time>
      </trkpt>
      <trkpt lat="45.60126543045044" lon="10.424995422363281">
        <ele>245.2687894911597</ele>
        <time>2017-11-22T11:14:43.059000Z</time>
      </trkpt>
      <trkpt lat="45.601394260302186" lon="10.424737930297852">
        <ele>246.434825884444</ele>
        <time>2017-11-22T11:14:43.414000Z</time>
      </trkpt>
      <trkpt lat="45.60171612538397" lon="10.424201488494873">
        <ele>254.70457305490413</ele>
        <time>2017-11-22T11:14:44.207000Z</time>
      </trkpt>
      <trkpt lat="45.60225256718695" lon="10.423429012298584">
        <ele>249.99092487648701</ele>
        <time>2017-11-22T11:14:45.428000Z</time>
      </trkpt>
      <trkpt lat="45.60248851776123" lon="10.42302131652832">
        <ele>246.99179157337093</ele>
        <time>2017-11-22T11:14:46.021000Z</time>
      </trkpt>
      <trkpt lat="45.602896213531494" lon="10.421905517578125">
        <ele>247.94808381426262</ele>
        <time>2017-11-22T11:14:47.433000Z</time>
      </trkpt>
      <trkpt lat="45.60322988109375" lon="10.420660635754437">
        <ele>238.0</ele>
        <time>2017-11-22T11:14:48.928000Z</time>
      </trkpt>
      <trkpt lat="45.60322981327772" lon="10.420660888776183">
        <ele>238.00096228946788</ele>
        <time>2017-11-22T11:14:48.928000Z</time>
      </trkpt>
      <trkpt lat="45.60322989709675" lon="10.420660804957151">
        <ele>238.00148157417559</ele>
        <time>2017-11-22T11:14:48.928000Z</time>
      </trkpt>
      <trkpt lat="45.60345419682562" lon="10.419824123382568">
        <ele>245.18361664288955</ele>
        <time>2017-11-22T11:14:49.933000Z</time>
      </trkpt>
      <trkpt lat="45.603690231218934" lon="10.419309139251709">
        <ele>247.37009822314369</ele>
        <time>2017-11-22T11:14:50.624000Z</time>
      </trkpt>
      <trkpt lat="45.60403347015381" lon="10.418686866760254">
        <ele>246.3142497312691</ele>
        <time>2017-11-22T11:14:51.513000Z</time>
      </trkpt>
      <trkpt lat="45.60467720031738" lon="10.41827917098999">
        <ele>247.0</ele>
        <time>2017-11-22T11:14:52.642000Z</time>
      </trkpt>
      <trkpt lat="45.60517072677612" lon="10.417742729187012">
        <ele>251.12476343726078</ele>
        <time>2017-11-22T11:14:53.636000Z</time>
      </trkpt>
      <trkpt lat="45.60553550720215" lon="10.41729211807251">
        <ele>250.33272140460235</ele>
        <time>2017-11-22T11:14:54.409000Z</time>
      </trkpt>
      <trkpt lat="45.60602911747992" lon="10.416476726531982">
        <ele>252.607134846113</ele>
        <time>2017-11-22T11:14:55.618000Z</time>
      </trkpt>
      <trkpt lat="45.60660847462714" lon="10.415489673614502">
        <ele>252.0</ele>
        <time>2017-11-22T11:14:57.063000Z</time>
      </trkpt>
      <trkpt lat="45.60731649398804" lon="10.413880348205566">
        <ele>257.0982807715083</ele>
        <time>2017-11-22T11:14:59.195000Z</time>
      </trkpt>
      <trkpt lat="45.60806751251221" lon="10.410189628601074">
        <ele>268.0</ele>
        <time>2017-11-22T11:15:03.506000Z</time>
      </trkpt>
      <trkpt lat="45.6082820892334" lon="10.408644676208496">
        <ele>269.0</ele>
        <time>2017-11-22T11:15:05.272000Z</time>
      </trkpt>
      <trkpt lat="45.609182814972975" lon="10.405425831951902">
        <ele>301.0</ele>
        <time>2017-11-22T11:15:09.160000Z</time>
      </trkpt>
      <trkpt lat="45.60918163508177" lon="10.405430048704147">
        <ele>300.98275825795116</ele>
        <time>2017-11-22T11:15:09.165000Z</time>
      </trkpt>
      <trkpt lat="45.60918163508177" lon="10.405429881066084">
        <ele>300.98212183087077</ele>
        <time>2017-11-22T11:15:09.165000Z</time>
      </trkpt>
      <trkpt lat="45.6095910910517" lon="10.403966903686523">
        <ele>283.0</ele>
        <time>2017-11-22T11:15:10.932000Z</time>
      </trkpt>
      <trkpt lat="45.60969837941229" lon="10.403516292572021">
        <ele>283.37044119224316</ele>
        <time>2017-11-22T11:15:11.466000Z</time>
      </trkpt>
      <trkpt lat="45.609869956970215" lon="10.402851104736328">
        <ele>282.9221880656098</ele>
        <time>2017-11-22T11:15:12.261000Z</time>
      </trkpt>
      <trkpt lat="45.60991287231445" lon="10.402722358703613">
        <ele>283.03317708292155</ele>
        <time>2017-11-22T11:15:12.421000Z</time>
      </trkpt>
      <trkpt lat="45.609934413805604" lon="10.402529239654541">
        <ele>283.1853687731763</ele>
        <time>2017-11-22T11:15:12.640000Z</time>
      </trkpt>
      <trkpt lat="45.61004161834717" lon="10.400340557098389">
        <ele>299.0</ele>
        <time>2017-11-22T11:15:15.101000Z</time>
      </trkpt>
      <trkpt lat="45.61006315983832" lon="10.400125980377197">
        <ele>299.1399449694761</ele>
        <time>2017-11-22T11:15:15.344000Z</time>
      </trkpt>
      <trkpt lat="45.61006315983832" lon="10.400018692016602">
        <ele>299.2092078512187</ele>
        <time>2017-11-22T11:15:15.464000Z</time>
      </trkpt>
      <trkpt lat="45.61006307601929" lon="10.399997234344482">
        <ele>299.2230606435587</ele>
        <time>2017-11-22T11:15:15.488000Z</time>
      </trkpt>
      <trkpt lat="45.61010607518256" lon="10.39931058883667">
        <ele>299.6681153682123</ele>
        <time>2017-11-22T11:15:16.261000Z</time>
      </trkpt>
      <trkpt lat="45.610127532854676" lon="10.398280620574951">
        <ele>301.0</ele>
        <time>2017-11-22T11:15:17.417000Z</time>
      </trkpt>
      <trkpt lat="45.610148990526795" lon="10.397250652313232">
        <ele>299.9617056164275</ele>
        <time>2017-11-22T11:15:18.573000Z</time>
      </trkpt>
      <trkpt lat="45.610170448198915" lon="10.39630651473999">
        <ele>297.6765223952645</ele>
        <time>2017-11-22T11:15:19.632000Z</time>
      </trkpt>
      <trkpt lat="45.61017036437988" lon="10.396263599395752">
        <ele>297.6761125410124</ele>
        <time>2017-11-22T11:15:19.680000Z</time>
      </trkpt>
      <trkpt lat="45.610170448198915" lon="10.396263599395752">
        <ele>297.67611139669265</ele>
        <time>2017-11-22T11:15:19.680000Z</time>
      </trkpt>
      <trkpt lat="45.61021327972412" lon="10.395276546478271">
        <ele>298.0</ele>
        <time>2017-11-22T11:15:20.789000Z</time>
      </trkpt>
      <trkpt lat="45.610385024920106" lon="10.393924713134766">
        <ele>298.05873656571316</ele>
        <time>2017-11-22T11:15:22.330000Z</time>
      </trkpt>
      <trkpt lat="45.61042785644531" lon="10.393238067626953">
        <ele>298.9221219820241</ele>
        <time>2017-11-22T11:15:23.103000Z</time>
      </trkpt>
      <trkpt lat="45.61036356724799" lon="10.392615795135498">
        <ele>299.61932651314794</ele>
        <time>2017-11-22T11:15:23.808000Z</time>
      </trkpt>
      <trkpt lat="45.61029919423163" lon="10.3920578956604">
        <ele>302.24748577329575</ele>
        <time>2017-11-22T11:15:24.442000Z</time>
      </trkpt>
      <trkpt lat="45.61029919423163" lon="10.391221046447754">
        <ele>304.8304974874072</ele>
        <time>2017-11-22T11:15:25.380000Z</time>
      </trkpt>
      <trkpt lat="45.61029919423163" lon="10.39107084274292">
        <ele>305.21659950258464</ele>
        <time>2017-11-22T11:15:25.548000Z</time>
      </trkpt>
      <trkpt lat="45.61029416441409" lon="10.390923328867549">
        <ele>305.5962374646835</ele>
        <time>2017-11-22T11:15:25.714000Z</time>
      </trkpt>
      <trkpt lat="45.610294081270695" lon="10.390920890495181">
        <ele>305.6025127981599</ele>
        <time>2017-11-22T11:15:25.717000Z</time>
      </trkpt>
      <trkpt lat="45.610294081270695" lon="10.390920639038086">
        <ele>305.6031591743603</ele>
        <time>2017-11-22T11:15:25.717000Z</time>
      </trkpt>
      <trkpt lat="45.61027773655951" lon="10.390427112579346">
        <ele>307.20653483238976</ele>
        <time>2017-11-22T11:15:26.271000Z</time>
      </trkpt>
      <trkpt lat="45.61025627888739" lon="10.390126705169678">
        <ele>307.98275458059294</ele>
        <time>2017-11-22T11:15:26.610000Z</time>
      </trkpt>
      <trkpt lat="45.61023482121527" lon="10.389997959136963">
        <ele>310.3229628842395</ele>
        <time>2017-11-22T11:15:26.758000Z</time>
      </trkpt>
      <trkpt lat="45.610127449035645" lon="10.387015342712402">
        <ele>321.0</ele>
        <time>2017-11-22T11:15:30.107000Z</time>
      </trkpt>
      <trkpt lat="45.610105438009256" lon="10.386883358674389">
        <ele>319.99474171666213</ele>
        <time>2017-11-22T11:15:30.259000Z</time>
      </trkpt>
      <trkpt lat="45.610104985535145" lon="10.386880645528436">
        <ele>319.95912921371996</ele>
        <time>2017-11-22T11:15:30.262000Z</time>
      </trkpt>
      <trkpt lat="45.61010490171611" lon="10.38688039407134">
        <ele>319.95557272044766</ele>
        <time>2017-11-22T11:15:30.262000Z</time>
      </trkpt>
      <trkpt lat="45.610084533691406" lon="10.386757850646973">
        <ele>318.34736869306056</ele>
        <time>2017-11-22T11:15:30.403000Z</time>
      </trkpt>
      <trkpt lat="45.60997724533081" lon="10.38658618927002">
        <ele>311.74154078672103</ele>
        <time>2017-11-22T11:15:30.661000Z</time>
      </trkpt>
      <trkpt lat="45.60976266860962" lon="10.386478900909424">
        <ele>310.1929057036071</ele>
        <time>2017-11-22T11:15:31.025000Z</time>
      </trkpt>
      <trkpt lat="45.609655464068055" lon="10.386478900909424">
        <ele>310.13254277122445</ele>
        <time>2017-11-22T11:15:31.197000Z</time>
      </trkpt>
      <trkpt lat="45.609118938446045" lon="10.386500358581543">
        <ele>308.1636600602346</ele>
        <time>2017-11-22T11:15:32.057000Z</time>
      </trkpt>
      <trkpt lat="45.609077009738016" lon="10.386494334797138">
        <ele>308.13993261540145</ele>
        <time>2017-11-22T11:15:32.125000Z</time>
      </trkpt>
      <trkpt lat="45.60907459817827" lon="10.386493988335133">
        <ele>308.13856791438525</ele>
        <time>2017-11-22T11:15:32.129000Z</time>
      </trkpt>
      <trkpt lat="45.609074514359236" lon="10.386493988335133">
        <ele>308.1385207189729</ele>
        <time>2017-11-22T11:15:32.129000Z</time>
      </trkpt>
      <trkpt lat="45.60896873474121" lon="10.386478900909424">
        <ele>308.07866436325213</ele>
        <time>2017-11-22T11:15:32.299000Z</time>
      </trkpt>
      <trkpt lat="45.60879715718329" lon="10.38632869720459">
        <ele>307.96537844123935</ele>
        <time>2017-11-22T11:15:32.622000Z</time>
      </trkpt>
      <trkpt lat="45.60868978500366" lon="10.386114120483398">
        <ele>307.86146155546425</ele>
        <time>2017-11-22T11:15:32.918000Z</time>
      </trkpt>
      <trkpt lat="45.608129631313595" lon="10.384371373549758">
        <ele>317.0</ele>
        <time>2017-11-22T11:15:35.069000Z</time>
      </trkpt>
      <trkpt lat="45.60812970623374" lon="10.384371606633067">
        <ele>317.000579084259</ele>
        <time>2017-11-22T11:15:35.069000Z</time>
      </trkpt>
      <trkpt lat="45.60812962241471" lon="10.384371355175972">
        <ele>317.0012079111497</ele>
        <time>2017-11-22T11:15:35.069000Z</time>
      </trkpt>
      <trkpt lat="45.60753107070923" lon="10.382509231567383">
        <ele>322.62760696557683</ele>
        <time>2017-11-22T11:15:37.367000Z</time>
      </trkpt>
      <trkpt lat="45.60725220479071" lon="10.38184404373169">
        <ele>329.88984753827225</ele>
        <time>2017-11-22T11:15:38.237000Z</time>
      </trkpt>
      <trkpt lat="45.606844310267874" lon="10.381028338277241">
        <ele>333.3450793147172</ele>
        <time>2017-11-22T11:15:39.362000Z</time>
      </trkpt>
      <trkpt lat="45.606843335554004" lon="10.381026389077306">
        <ele>333.348887652986</ele>
        <time>2017-11-22T11:15:39.365000Z</time>
      </trkpt>
      <trkpt lat="45.60684325173497" lon="10.381026305258274">
        <ele>333.34912007067123</ele>
        <time>2017-11-22T11:15:39.365000Z</time>
      </trkpt>
      <trkpt lat="45.60678013600409" lon="10.380899906158447">
        <ele>333.59595781456926</ele>
        <time>2017-11-22T11:15:39.539000Z</time>
      </trkpt>
      <trkpt lat="45.60671576298773" lon="10.380792617797852">
        <ele>334.15395396162694</ele>
        <time>2017-11-22T11:15:39.698000Z</time>
      </trkpt>
      <trkpt lat="45.60669422149658" lon="10.38057804107666">
        <ele>334.49851455404297</ele>
        <time>2017-11-22T11:15:39.941000Z</time>
      </trkpt>
      <trkpt lat="45.6067156791687" lon="10.379633903503418">
        <ele>337.0</ele>
        <time>2017-11-22T11:15:41Z</time>
      </trkpt>
      <trkpt lat="45.606608390808105" lon="10.379440784454346">
        <ele>339.43977066924145</ele>
        <time>2017-11-22T11:15:41.277000Z</time>
      </trkpt>
      <trkpt lat="45.606393814086914" lon="10.379247665405273">
        <ele>340.5760579464254</ele>
        <time>2017-11-22T11:15:41.684000Z</time>
      </trkpt>
      <trkpt lat="45.6062650680542" lon="10.378990173339844">
        <ele>342.2349391011083</ele>
        <time>2017-11-22T11:15:42.039000Z</time>
      </trkpt>
      <trkpt lat="45.60628652572632" lon="10.378668308258057">
        <ele>343.2485554773171</ele>
        <time>2017-11-22T11:15:42.402000Z</time>
      </trkpt>
      <trkpt lat="45.6064582709223" lon="10.37783145904541">
        <ele>347.3159611609415</ele>
        <time>2017-11-22T11:15:43.380000Z</time>
      </trkpt>
      <trkpt lat="45.60641184356379" lon="10.377661691028637">
        <ele>347.72094515420855</ele>
        <time>2017-11-22T11:15:43.584000Z</time>
      </trkpt>
      <trkpt lat="45.606410913169384" lon="10.377658288925886">
        <ele>347.72906092219347</ele>
        <time>2017-11-22T11:15:43.588000Z</time>
      </trkpt>
      <trkpt lat="45.606410913169384" lon="10.377658037468791">
        <ele>347.7296196067357</ele>
        <time>2017-11-22T11:15:43.588000Z</time>
      </trkpt>
      <trkpt lat="45.606393814086914" lon="10.3775954246521">
        <ele>347.87895569761577</ele>
        <time>2017-11-22T11:15:43.663000Z</time>
      </trkpt>
      <trkpt lat="45.6061577796936" lon="10.37733793258667">
        <ele>349.48860525074343</ele>
        <time>2017-11-22T11:15:44.139000Z</time>
      </trkpt>
      <trkpt lat="45.60602903366089" lon="10.377123355865479">
        <ele>350.1166747007769</ele>
        <time>2017-11-22T11:15:44.456000Z</time>
      </trkpt>
      <trkpt lat="45.60598611831665" lon="10.376887321472168">
        <ele>350.8791909388629</ele>
        <time>2017-11-22T11:15:44.730000Z</time>
      </trkpt>
      <trkpt lat="45.60592174530029" lon="10.375642776489258">
        <ele>356.11441934984055</ele>
        <time>2017-11-22T11:15:46.130000Z</time>
      </trkpt>
      <trkpt lat="45.60579308308661" lon="10.375020503997803">
        <ele>363.89956534335323</ele>
        <time>2017-11-22T11:15:46.858000Z</time>
      </trkpt>
      <trkpt lat="45.60575016774237" lon="10.37484884262085">
        <ele>366.3899210153473</ele>
        <time>2017-11-22T11:15:47.062000Z</time>
      </trkpt>
      <trkpt lat="45.60575008392334" lon="10.374441146850586">
        <ele>368.9775892344235</ele>
        <time>2017-11-22T11:15:47.519000Z</time>
      </trkpt>
      <trkpt lat="45.60568571090698" lon="10.37386178970337">
        <ele>372.76602533179613</ele>
        <time>2017-11-22T11:15:48.177000Z</time>
      </trkpt>
      <trkpt lat="45.60555696487427" lon="10.373475551605225">
        <ele>374.4110437210317</ele>
        <time>2017-11-22T11:15:48.657000Z</time>
      </trkpt>
      <trkpt lat="45.60542821884155" lon="10.373282432556152">
        <ele>376.77006186099106</ele>
        <time>2017-11-22T11:15:48.956000Z</time>
      </trkpt>
      <trkpt lat="45.60533002897328" lon="10.373262843351236">
        <ele>377.31494040739904</ele>
        <time>2017-11-22T11:15:49.115000Z</time>
      </trkpt>
      <trkpt lat="45.60532696545124" lon="10.373262232169509">
        <ele>377.33305162579967</ele>
        <time>2017-11-22T11:15:49.120000Z</time>
      </trkpt>
      <trkpt lat="45.60532704927027" lon="10.373262232169509">
        <ele>377.3335423979281</ele>
        <time>2017-11-22T11:15:49.120000Z</time>
      </trkpt>
      <trkpt lat="45.60499906539917" lon="10.373196601867676">
        <ele>383.60599337491226</ele>
        <time>2017-11-22T11:15:49.651000Z</time>
      </trkpt>
      <trkpt lat="45.604891777038574" lon="10.373282432556152">
        <ele>384.3258774048664</ele>
        <time>2017-11-22T11:15:49.848000Z</time>
      </trkpt>
      <trkpt lat="45.60478448867798" lon="10.373647212982178">
        <ele>383.6134632276185</ele>
        <time>2017-11-22T11:15:50.292000Z</time>
      </trkpt>
      <trkpt lat="45.6046986579895" lon="10.373625755310059">
        <ele>384.1236426043559</ele>
        <time>2017-11-22T11:15:50.432000Z</time>
      </trkpt>
      <trkpt lat="45.604655742645264" lon="10.373454093933105">
        <ele>384.87036426247073</ele>
        <time>2017-11-22T11:15:50.636000Z</time>
      </trkpt>
      <trkpt lat="45.60464166327449" lon="10.373367057812024">
        <ele>385.2362957717728</ele>
        <time>2017-11-22T11:15:50.736000Z</time>
      </trkpt>
      <trkpt lat="45.60464099049568" lon="10.3733628988266">
        <ele>385.25378166180616</ele>
        <time>2017-11-22T11:15:50.741000Z</time>
      </trkpt>
      <trkpt lat="45.60464099049568" lon="10.373362647369504">
        <ele>385.25481170239635</ele>
        <time>2017-11-22T11:15:50.741000Z</time>
      </trkpt>
      <trkpt lat="45.60454845428467" lon="10.372788906097412">
        <ele>390.0</ele>
        <time>2017-11-22T11:15:51.401000Z</time>
      </trkpt>
      <trkpt lat="45.604591369628906" lon="10.372660160064697">
        <ele>390.63175285234576</ele>
        <time>2017-11-22T11:15:51.561000Z</time>
      </trkpt>
      <trkpt lat="45.60482740402222" lon="10.372488498687744">
        <ele>396.3086354164913</ele>
        <time>2017-11-22T11:15:51.986000Z</time>
      </trkpt>
      <trkpt lat="45.604891777038574" lon="10.372381210327148">
        <ele>396.93475180723425</ele>
        <time>2017-11-22T11:15:52.145000Z</time>
      </trkpt>
      <trkpt lat="45.60493469238281" lon="10.371201038360596">
        <ele>403.503095351115</ele>
        <time>2017-11-22T11:15:53.470000Z</time>
      </trkpt>
      <trkpt lat="45.60499474923896" lon="10.37102931842725">
        <ele>403.79835785196263</ele>
        <time>2017-11-22T11:15:53.685000Z</time>
      </trkpt>
      <trkpt lat="45.60499604791403" lon="10.371025605127215">
        <ele>403.80474265246517</ele>
        <time>2017-11-22T11:15:53.690000Z</time>
      </trkpt>
      <trkpt lat="45.60499613173306" lon="10.37102535367012">
        <ele>403.80517104046635</ele>
        <time>2017-11-22T11:15:53.690000Z</time>
      </trkpt>
      <trkpt lat="45.60508489608765" lon="10.370771884918213">
        <ele>402.57444364779184</ele>
        <time>2017-11-22T11:15:54.008000Z</time>
      </trkpt>
      <trkpt lat="45.60499906539917" lon="10.370664596557617">
        <ele>406.8251020837056</ele>
        <time>2017-11-22T11:15:54.191000Z</time>
      </trkpt>
      <trkpt lat="45.60482740402222" lon="10.37083625793457">
        <ele>404.9523249114988</ele>
        <time>2017-11-22T11:15:54.527000Z</time>
      </trkpt>
      <trkpt lat="45.60476772432217" lon="10.371512099334971">
        <ele>406.0</ele>
        <time>2017-11-22T11:15:55.291000Z</time>
      </trkpt>
      <trkpt lat="45.60476747341454" lon="10.37151494063437">
        <ele>406.0022683059008</ele>
        <time>2017-11-22T11:15:55.294000Z</time>
      </trkpt>
      <trkpt lat="45.60476747341454" lon="10.371515024453402">
        <ele>406.002334694697</ele>
        <time>2017-11-22T11:15:55.294000Z</time>
      </trkpt>
      <trkpt lat="45.60476303100586" lon="10.371565818786621">
        <ele>406.04287945843254</ele>
        <time>2017-11-22T11:15:55.351000Z</time>
      </trkpt>
      <trkpt lat="45.60452699661255" lon="10.372188091278076">
        <ele>405.2701992499456</ele>
        <time>2017-11-22T11:15:56.145000Z</time>
      </trkpt>
      <trkpt lat="45.60446262359619" lon="10.372231006622314">
        <ele>405.35061558974843</ele>
        <time>2017-11-22T11:15:56.259000Z</time>
      </trkpt>
      <trkpt lat="45.604398250579834" lon="10.372188091278076">
        <ele>405.431031946038</ele>
        <time>2017-11-22T11:15:56.373000Z</time>
      </trkpt>
      <trkpt lat="45.604398250579834" lon="10.37208080291748">
        <ele>405.51601016441015</ele>
        <time>2017-11-22T11:15:56.493000Z</time>
      </trkpt>
      <trkpt lat="45.60456991195679" lon="10.371758937835693">
        <ele>405.8365739076483</ele>
        <time>2017-11-22T11:15:56.947000Z</time>
      </trkpt>
      <trkpt lat="45.604655742645264" lon="10.37135124206543">
        <ele>407.5071268108322</ele>
        <time>2017-11-22T11:15:57.425000Z</time>
      </trkpt>
      <trkpt lat="45.60460201206046" lon="10.371126595459826">
        <ele>408.3745718382916</ele>
        <time>2017-11-22T11:15:57.691000Z</time>
      </trkpt>
      <trkpt lat="45.604601092636585" lon="10.371122751384974">
        <ele>408.3894152651555</ele>
        <time>2017-11-22T11:15:57.696000Z</time>
      </trkpt>
      <trkpt lat="45.60460100881755" lon="10.371122499927878">
        <ele>408.3904329832667</ele>
        <time>2017-11-22T11:15:57.696000Z</time>
      </trkpt>
      <trkpt lat="45.60441970825195" lon="10.37036418914795">
        <ele>413.6517763560947</ele>
        <time>2017-11-22T11:15:58.595000Z</time>
      </trkpt>
      <trkpt lat="45.604355335235596" lon="10.369548797607422">
        <ele>421.1246237952394</ele>
        <time>2017-11-22T11:15:59.515000Z</time>
      </trkpt>
      <trkpt lat="45.60396909713745" lon="10.368776321411133">
        <ele>440.16475916205104</ele>
        <time>2017-11-22T11:16:00.580000Z</time>
      </trkpt>
      <trkpt lat="45.60403355397284" lon="10.368411540985107">
        <ele>444.67155821958204</ele>
        <time>2017-11-22T11:16:01.002000Z</time>
      </trkpt>
      <trkpt lat="45.60407638549805" lon="10.368218421936035">
        <ele>455.4316588265567</ele>
        <time>2017-11-22T11:16:01.229000Z</time>
      </trkpt>
      <trkpt lat="45.60418367385864" lon="10.368132591247559">
        <ele>457.5367813427677</ele>
        <time>2017-11-22T11:16:01.426000Z</time>
      </trkpt>
      <trkpt lat="45.60529947280884" lon="10.368154048919678">
        <ele>445.66599293346013</ele>
        <time>2017-11-22T11:16:03.215000Z</time>
      </trkpt>
      <trkpt lat="45.605385303497314" lon="10.36808967590332">
        <ele>445.9720081271239</ele>
        <time>2017-11-22T11:16:03.370000Z</time>
      </trkpt>
      <trkpt lat="45.605385303497314" lon="10.368003845214844">
        <ele>447.2070827257876</ele>
        <time>2017-11-22T11:16:03.466000Z</time>
      </trkpt>
      <trkpt lat="45.60532093048096" lon="10.367939472198486">
        <ele>448.8229955840597</ele>
        <time>2017-11-22T11:16:03.592000Z</time>
      </trkpt>
      <trkpt lat="45.60502052307129" lon="10.367982387542725">
        <ele>455.03271586554393</ele>
        <time>2017-11-22T11:16:04.076000Z</time>
      </trkpt>
      <trkpt lat="45.604398250579834" lon="10.367639064788818">
        <ele>477.08565694018597</ele>
        <time>2017-11-22T11:16:05.145000Z</time>
      </trkpt>
      <trkpt lat="45.603625774383545" lon="10.367403030395508">
        <ele>505.0</ele>
        <time>2017-11-22T11:16:06.411000Z</time>
      </trkpt>
      <trkpt lat="45.60356140136719" lon="10.367317199707031">
        <ele>505.0</ele>
        <time>2017-11-22T11:16:06.552000Z</time>
      </trkpt>
      <trkpt lat="45.60358285903931" lon="10.367209911346436">
        <ele>505.0</ele>
        <time>2017-11-22T11:16:06.677000Z</time>
      </trkpt>
      <trkpt lat="45.604870319366455" lon="10.36736011505127">
        <ele>505.0</ele>
        <time>2017-11-22T11:16:08.748000Z</time>
      </trkpt>
      <trkpt lat="45.60508489608765" lon="10.367295742034912">
        <ele>492.5279787210966</ele>
        <time>2017-11-22T11:16:09.099000Z</time>
      </trkpt>
      <trkpt lat="45.60542821884155" lon="10.366673469543457">
        <ele>486.27688152491754</ele>
        <time>2017-11-22T11:16:09.988000Z</time>
      </trkpt>
      <trkpt lat="45.60607194900513" lon="10.36609411239624">
        <ele>498.6879918762467</ele>
        <time>2017-11-22T11:16:11.208000Z</time>
      </trkpt>
      <trkpt lat="45.606372356414795" lon="10.36562204360962">
        <ele>516.2691505089459</ele>
        <time>2017-11-22T11:16:11.924000Z</time>
      </trkpt>
      <trkpt lat="45.606629848480225" lon="10.36510705947876">
        <ele>518.7861500385698</ele>
        <time>2017-11-22T11:16:12.634000Z</time>
      </trkpt>
      <trkpt lat="45.607123374938965" lon="10.364763736724854">
        <ele>526.0097497011625</ele>
        <time>2017-11-22T11:16:13.514000Z</time>
      </trkpt>
      <trkpt lat="45.60763475356895" lon="10.36411280776801">
        <ele>530.8324489236046</ele>
        <time>2017-11-22T11:16:14.612000Z</time>
      </trkpt>
      <trkpt lat="45.607636934146285" lon="10.364110032096505">
        <ele>530.8387997869978</ele>
        <time>2017-11-22T11:16:14.617000Z</time>
      </trkpt>
      <trkpt lat="45.60763710178435" lon="10.364109864458442">
        <ele>530.8392447800425</ele>
        <time>2017-11-22T11:16:14.617000Z</time>
      </trkpt>
      <trkpt lat="45.6078314781189" lon="10.36386251449585">
        <ele>531.4052850765644</ele>
        <time>2017-11-22T11:16:15.034000Z</time>
      </trkpt>
      <trkpt lat="45.60798168182373" lon="10.363519191741943">
        <ele>532.0214352500772</ele>
        <time>2017-11-22T11:16:15.488000Z</time>
      </trkpt>
      <trkpt lat="45.6087327003479" lon="10.363390445709229">
        <ele>531.0</ele>
        <time>2017-11-22T11:16:16.701000Z</time>
      </trkpt>
      <trkpt lat="45.609140396118164" lon="10.363154411315918">
        <ele>553.4602692121293</ele>
        <time>2017-11-22T11:16:17.406000Z</time>
      </trkpt>
      <trkpt lat="45.6091833114624" lon="10.363025665283203">
        <ele>556.5441337716891</ele>
        <time>2017-11-22T11:16:17.566000Z</time>
      </trkpt>
      <trkpt lat="45.609140396118164" lon="10.362918376922607">
        <ele>557.0655808162363</ele>
        <time>2017-11-22T11:16:17.705000Z</time>
      </trkpt>
      <trkpt lat="45.60879707336426" lon="10.363047122955322">
        <ele>560.574800916237</ele>
        <time>2017-11-22T11:16:18.274000Z</time>
      </trkpt>
      <trkpt lat="45.60843229293823" lon="10.36287546157837">
        <ele>564.3717168465583</ele>
        <time>2017-11-22T11:16:18.890000Z</time>
      </trkpt>
      <trkpt lat="45.608088970184326" lon="10.36285400390625">
        <ele>570.7693255551661</ele>
        <time>2017-11-22T11:16:19.441000Z</time>
      </trkpt>
      <trkpt lat="45.60802459716797" lon="10.362725257873535">
        <ele>570.7465220616127</ele>
        <time>2017-11-22T11:16:19.618000Z</time>
      </trkpt>
      <trkpt lat="45.60806751251221" lon="10.362660884857178">
        <ele>570.6305377416002</ele>
        <time>2017-11-22T11:16:19.718000Z</time>
      </trkpt>
      <trkpt lat="45.60868978500366" lon="10.36261796951294">
        <ele>566.4689650735685</ele>
        <time>2017-11-22T11:16:20.717000Z</time>
      </trkpt>
      <trkpt lat="45.60896873474121" lon="10.362424850463867">
        <ele>571.5577467014717</ele>
        <time>2017-11-22T11:16:21.214000Z</time>
      </trkpt>
      <trkpt lat="45.609140396118164" lon="10.362231731414795">
        <ele>571.1504555572665</ele>
        <time>2017-11-22T11:16:21.564000Z</time>
      </trkpt>
      <trkpt lat="45.60926914215088" lon="10.361759662628174">
        <ele>568.4895974371101</ele>
        <time>2017-11-22T11:16:22.132000Z</time>
      </trkpt>
      <trkpt lat="45.60937368689448" lon="10.361634208944189">
        <ele>563.4163056672544</ele>
        <time>2017-11-22T11:16:22.351000Z</time>
      </trkpt>
      <trkpt lat="45.609376430511475" lon="10.361630916595459">
        <ele>563.4231300677972</ele>
        <time>2017-11-22T11:16:22.357000Z</time>
      </trkpt>
      <trkpt lat="45.6095910910517" lon="10.361566543579102">
        <ele>563.8409820507254</ele>
        <time>2017-11-22T11:16:22.709000Z</time>
      </trkpt>
      <trkpt lat="45.60967683792114" lon="10.361673831939697">
        <ele>570.3213689821791</ele>
        <time>2017-11-22T11:16:22.892000Z</time>
      </trkpt>
      <trkpt lat="45.609912956133485" lon="10.361802577972412">
        <ele>572.8651541606504</ele>
        <time>2017-11-22T11:16:23.297000Z</time>
      </trkpt>
      <trkpt lat="45.60991287231445" lon="10.361802577972412">
        <ele>572.8659978798119</ele>
        <time>2017-11-22T11:16:23.297000Z</time>
      </trkpt>
      <trkpt lat="45.610105991363525" lon="10.361974239349365">
        <ele>579.1550928353989</ele>
        <time>2017-11-22T11:16:23.662000Z</time>
      </trkpt>
      <trkpt lat="45.61068534851074" lon="10.362939834594727">
        <ele>590.7272629348754</ele>
        <time>2017-11-22T11:16:25.089000Z</time>
      </trkpt>
      <trkpt lat="45.61087988732057" lon="10.363065271761299">
        <ele>597.7966049245342</ele>
        <time>2017-11-22T11:16:25.431000Z</time>
      </trkpt>
      <trkpt lat="45.610883329063654" lon="10.363067490980029">
        <ele>597.827318074446</ele>
        <time>2017-11-22T11:16:25.437000Z</time>
      </trkpt>
      <trkpt lat="45.61088316142559" lon="10.363067407160997">
        <ele>597.8287627359924</ele>
        <time>2017-11-22T11:16:25.437000Z</time>
      </trkpt>
      <trkpt lat="45.611350536346436" lon="10.36336898803711">
        <ele>596.0</ele>
        <time>2017-11-22T11:16:26.259000Z</time>
      </trkpt>
      <trkpt lat="45.61150074005127" lon="10.36360502243042">
        <ele>594.7202559906444</ele>
        <time>2017-11-22T11:16:26.617000Z</time>
      </trkpt>
      <trkpt lat="45.611629486083984" lon="10.364291667938232">
        <ele>584.5358562570054</ele>
        <time>2017-11-22T11:16:27.414000Z</time>
      </trkpt>
      <trkpt lat="45.611865520477295" lon="10.364549160003662">
        <ele>585.8335637641143</ele>
        <time>2017-11-22T11:16:27.890000Z</time>
      </trkpt>
      <trkpt lat="45.61223030090332" lon="10.364527702331543">
        <ele>585.367128283206</ele>
        <time>2017-11-22T11:16:28.475000Z</time>
      </trkpt>
      <trkpt lat="45.61341047286987" lon="10.363647937774658">
        <ele>584.0</ele>
        <time>2017-11-22T11:16:30.609000Z</time>
      </trkpt>
      <trkpt lat="45.61401128768921" lon="10.363540649414062">
        <ele>593.097280960235</ele>
        <time>2017-11-22T11:16:31.580000Z</time>
      </trkpt>
      <trkpt lat="45.61418294906616" lon="10.36360502243042">
        <ele>604.4303831734156</ele>
        <time>2017-11-22T11:16:31.865000Z</time>
      </trkpt>
      <trkpt lat="45.61426877975464" lon="10.363755226135254">
        <ele>604.4976356207166</ele>
        <time>2017-11-22T11:16:32.082000Z</time>
      </trkpt>
      <trkpt lat="45.61431169509888" lon="10.363969802856445">
        <ele>604.5750207984879</ele>
        <time>2017-11-22T11:16:32.332000Z</time>
      </trkpt>
      <trkpt lat="45.61418294906616" lon="10.364420413970947">
        <ele>602.7438004377522</ele>
        <time>2017-11-22T11:16:32.878000Z</time>
      </trkpt>
      <trkpt lat="45.61418294906616" lon="10.364806652069092">
        <ele>602.8777271616526</ele>
        <time>2017-11-22T11:16:33.311000Z</time>
      </trkpt>
      <trkpt lat="45.61429023742676" lon="10.36508560180664">
        <ele>597.3643255229564</ele>
        <time>2017-11-22T11:16:33.668000Z</time>
      </trkpt>
      <trkpt lat="45.614655101671815" lon="10.3656005859375">
        <ele>593.112047509417</ele>
        <time>2017-11-22T11:16:34.490000Z</time>
      </trkpt>
      <trkpt lat="45.61476239003241" lon="10.365815162658691">
        <ele>590.6708254891469</ele>
        <time>2017-11-22T11:16:34.786000Z</time>
      </trkpt>
      <trkpt lat="45.61476239003241" lon="10.366437435150146">
        <ele>578.9114126730044</ele>
        <time>2017-11-22T11:16:35.484000Z</time>
      </trkpt>
      <trkpt lat="45.61493396759033" lon="10.36684513092041">
        <ele>572.5076822619718</ele>
        <time>2017-11-22T11:16:36.018000Z</time>
      </trkpt>
      <trkpt lat="45.615170085802674" lon="10.366952419281006">
        <ele>572.4275859647441</ele>
        <time>2017-11-22T11:16:36.415000Z</time>
      </trkpt>
      <trkpt lat="45.61517000198364" lon="10.366952419281006">
        <ele>572.4274460968732</ele>
        <time>2017-11-22T11:16:36.415000Z</time>
      </trkpt>
      <trkpt lat="45.61557778157294" lon="10.366909503936768">
        <ele>571.7451476527915</ele>
        <time>2017-11-22T11:16:37.070000Z</time>
      </trkpt>
      <trkpt lat="45.61581373214722" lon="10.366823673248291">
        <ele>573.2400133720917</ele>
        <time>2017-11-22T11:16:37.460000Z</time>
      </trkpt>
      <trkpt lat="45.61596393585205" lon="10.366694927215576">
        <ele>572.981959553883</ele>
        <time>2017-11-22T11:16:37.741000Z</time>
      </trkpt>
      <trkpt lat="45.61626442708075" lon="10.36611557006836">
        <ele>582.0794819602761</ele>
        <time>2017-11-22T11:16:38.550000Z</time>
      </trkpt>
      <trkpt lat="45.61643600463867" lon="10.36609411239624">
        <ele>582.8018251587374</ele>
        <time>2017-11-22T11:16:38.826000Z</time>
      </trkpt>
      <trkpt lat="45.61652183532715" lon="10.366201400756836">
        <ele>583.2799856373796</ele>
        <time>2017-11-22T11:16:39.009000Z</time>
      </trkpt>
      <trkpt lat="45.616886615753174" lon="10.367231369018555">
        <ele>588.0</ele>
        <time>2017-11-22T11:16:40.304000Z</time>
      </trkpt>
      <trkpt lat="45.61718702316284" lon="10.367724895477295">
        <ele>570.8177078208324</ele>
        <time>2017-11-22T11:16:41.038000Z</time>
      </trkpt>
      <trkpt lat="45.617358684539795" lon="10.367789268493652">
        <ele>567.5152064079585</ele>
        <time>2017-11-22T11:16:41.323000Z</time>
      </trkpt>
      <trkpt lat="45.61748743057251" lon="10.367767810821533">
        <ele>565.1031489763992</ele>
        <time>2017-11-22T11:16:41.531000Z</time>
      </trkpt>
      <trkpt lat="45.61772346496582" lon="10.367574691772461">
        <ele>548.7090668625418</ele>
        <time>2017-11-22T11:16:41.967000Z</time>
      </trkpt>
      <trkpt lat="45.61798095703125" lon="10.367038249969482">
        <ele>559.706905927056</ele>
        <time>2017-11-22T11:16:42.697000Z</time>
      </trkpt>
      <trkpt lat="45.61828136444092" lon="10.366544723510742">
        <ele>578.0603839726836</ele>
        <time>2017-11-22T11:16:43.431000Z</time>
      </trkpt>
      <trkpt lat="45.61864614486694" lon="10.366179943084717">
        <ele>570.4522275339515</ele>
        <time>2017-11-22T11:16:44.145000Z</time>
      </trkpt>
      <trkpt lat="45.61901092529297" lon="10.36562204360962">
        <ele>582.7592933078516</ele>
        <time>2017-11-22T11:16:45.001000Z</time>
      </trkpt>
      <trkpt lat="45.61918258666992" lon="10.365557670593262">
        <ele>583.4172329394322</ele>
        <time>2017-11-22T11:16:45.286000Z</time>
      </trkpt>
      <trkpt lat="45.62029838562012" lon="10.367403030395508">
        <ele>575.0</ele>
        <time>2017-11-22T11:16:48.021000Z</time>
      </trkpt>
      <trkpt lat="45.620856285095215" lon="10.367703437805176">
        <ele>550.4857202183751</ele>
        <time>2017-11-22T11:16:48.977000Z</time>
      </trkpt>
      <trkpt lat="45.62098503112793" lon="10.36783218383789">
        <ele>550.0947817810357</ele>
        <time>2017-11-22T11:16:49.229000Z</time>
      </trkpt>
      <trkpt lat="45.621113777160645" lon="10.368690490722656">
        <ele>549.9004214471042</ele>
        <time>2017-11-22T11:16:50.213000Z</time>
      </trkpt>
      <trkpt lat="45.620834827423096" lon="10.36933422088623">
        <ele>549.9393911903245</ele>
        <time>2017-11-22T11:16:51.062000Z</time>
      </trkpt>
      <trkpt lat="45.62086327771849" lon="10.370658832564203">
        <ele>547.6562188928688</ele>
        <time>2017-11-22T11:16:52.548000Z</time>
      </trkpt>
      <trkpt lat="45.62086332589388" lon="10.370661076158285">
        <ele>547.6396297586399</ele>
        <time>2017-11-22T11:16:52.551000Z</time>
      </trkpt>
      <trkpt lat="45.62086332589388" lon="10.37066082470119">
        <ele>547.6377713605397</ele>
        <time>2017-11-22T11:16:52.551000Z</time>
      </trkpt>
      <trkpt lat="45.620877742767334" lon="10.37132978439331">
        <ele>539.3581343404063</ele>
        <time>2017-11-22T11:16:53.301000Z</time>
      </trkpt>
      <trkpt lat="45.62089920043945" lon="10.371437072753906">
        <ele>538.5334360627319</ele>
        <time>2017-11-22T11:16:53.426000Z</time>
      </trkpt>
      <trkpt lat="45.62115669250488" lon="10.37182331085205">
        <ele>531.2565820707767</ele>
        <time>2017-11-22T11:16:54.024000Z</time>
      </trkpt>
      <trkpt lat="45.621821880340576" lon="10.372467041015625">
        <ele>519.1832792690766</ele>
        <time>2017-11-22T11:16:55.312000Z</time>
      </trkpt>
      <trkpt lat="45.622100830078125" lon="10.37259578704834">
        <ele>530.6176878356774</ele>
        <time>2017-11-22T11:16:55.782000Z</time>
      </trkpt>
      <trkpt lat="45.622336864471436" lon="10.372509956359863">
        <ele>533.7482111077096</ele>
        <time>2017-11-22T11:16:56.172000Z</time>
      </trkpt>
      <trkpt lat="45.62270164489746" lon="10.372145175933838">
        <ele>526.7464326159763</ele>
        <time>2017-11-22T11:16:56.886000Z</time>
      </trkpt>
      <trkpt lat="45.622851848602295" lon="10.37208080291748">
        <ele>526.2761255752389</ele>
        <time>2017-11-22T11:16:57.137000Z</time>
      </trkpt>
      <trkpt lat="45.62323808670044" lon="10.37208080291748">
        <ele>525.1176829436305</ele>
        <time>2017-11-22T11:16:57.756000Z</time>
      </trkpt>
      <trkpt lat="45.62338829040527" lon="10.372016429901123">
        <ele>528.308433469739</ele>
        <time>2017-11-22T11:16:58.007000Z</time>
      </trkpt>
      <trkpt lat="45.62349557876587" lon="10.371909141540527">
        <ele>527.9110716439835</ele>
        <time>2017-11-22T11:16:58.217000Z</time>
      </trkpt>
      <trkpt lat="45.62413930892944" lon="10.370900630950928">
        <ele>513.3431488099778</ele>
        <time>2017-11-22T11:16:59.748000Z</time>
      </trkpt>
      <trkpt lat="45.62426805496216" lon="10.370750427246094">
        <ele>506.8522506625743</ele>
        <time>2017-11-22T11:17:00.014000Z</time>
      </trkpt>
      <trkpt lat="45.624611377716064" lon="10.370707511901855">
        <ele>503.76004750217226</ele>
        <time>2017-11-22T11:17:00.566000Z</time>
      </trkpt>
      <trkpt lat="45.624868869781494" lon="10.370900630950928">
        <ele>506.6874150816097</ele>
        <time>2017-11-22T11:17:01.032000Z</time>
      </trkpt>
      <trkpt lat="45.62551259994507" lon="10.37233829498291">
        <ele>488.7198237031751</ele>
        <time>2017-11-22T11:17:02.946000Z</time>
      </trkpt>
      <trkpt lat="45.62555551528931" lon="10.372896194458008">
        <ele>489.8001906652284</ele>
        <time>2017-11-22T11:17:03.575000Z</time>
      </trkpt>
      <trkpt lat="45.62546968460083" lon="10.373303890228271">
        <ele>489.10256727939776</ele>
        <time>2017-11-22T11:17:04.052000Z</time>
      </trkpt>
      <trkpt lat="45.62538385391235" lon="10.373539924621582">
        <ele>488.0</ele>
        <time>2017-11-22T11:17:04.350000Z</time>
      </trkpt>
      <trkpt lat="45.62489032745361" lon="10.374290943145752">
        <ele>496.9336881091231</ele>
        <time>2017-11-22T11:17:05.505000Z</time>
      </trkpt>
      <trkpt lat="45.624611377716064" lon="10.374913215637207">
        <ele>499.7550293225515</ele>
        <time>2017-11-22T11:17:06.334000Z</time>
      </trkpt>
      <trkpt lat="45.62450408935547" lon="10.375514030456543">
        <ele>495.3569032179119</ele>
        <time>2017-11-22T11:17:07.029000Z</time>
      </trkpt>
      <trkpt lat="45.62450408935547" lon="10.375728607177734">
        <ele>495.1037885443081</ele>
        <time>2017-11-22T11:17:07.270000Z</time>
      </trkpt>
      <trkpt lat="45.624568462371826" lon="10.375943183898926">
        <ele>496.49503565791065</ele>
        <time>2017-11-22T11:17:07.532000Z</time>
      </trkpt>
      <trkpt lat="45.62467575073242" lon="10.376050472259521">
        <ele>496.27421006746204</ele>
        <time>2017-11-22T11:17:07.742000Z</time>
      </trkpt>
      <trkpt lat="45.62480449676514" lon="10.37609338760376">
        <ele>495.4659995834968</ele>
        <time>2017-11-22T11:17:07.954000Z</time>
      </trkpt>
      <trkpt lat="45.62499761581421" lon="10.376007556915283">
        <ele>494.22962277538517</ele>
        <time>2017-11-22T11:17:08.278000Z</time>
      </trkpt>
      <trkpt lat="45.62613487243652" lon="10.374441146850586">
        <ele>477.9092466530471</ele>
        <time>2017-11-22T11:17:10.809000Z</time>
      </trkpt>
      <trkpt lat="45.62626361846924" lon="10.37433385848999">
        <ele>477.46088013279774</ele>
        <time>2017-11-22T11:17:11.048000Z</time>
      </trkpt>
      <trkpt lat="45.62641382217407" lon="10.374290943145752">
        <ele>476.6268737958831</ele>
        <time>2017-11-22T11:17:11.294000Z</time>
      </trkpt>
      <trkpt lat="45.626606941223145" lon="10.374312400817871">
        <ele>475.5901644364558</ele>
        <time>2017-11-22T11:17:11.605000Z</time>
      </trkpt>
      <trkpt lat="45.6267786026001" lon="10.374462604522705">
        <ele>472.1797215587156</ele>
        <time>2017-11-22T11:17:11.928000Z</time>
      </trkpt>
      <trkpt lat="45.62705755233765" lon="10.374891757965088">
        <ele>469.98676661036325</ele>
        <time>2017-11-22T11:17:12.585000Z</time>
      </trkpt>
      <trkpt lat="45.6272292137146" lon="10.374999046325684">
        <ele>468.89232856618736</ele>
        <time>2017-11-22T11:17:12.885000Z</time>
      </trkpt>
      <trkpt lat="45.62740087509155" lon="10.374934673309326">
        <ele>467.8555850778518</ele>
        <time>2017-11-22T11:17:13.170000Z</time>
      </trkpt>
      <trkpt lat="45.62750824727118" lon="10.374655723571777">
        <ele>459.8880812020866</ele>
        <time>2017-11-22T11:17:13.527000Z</time>
      </trkpt>
      <trkpt lat="45.62727212905884" lon="10.373969078063965">
        <ele>459.42873624868815</ele>
        <time>2017-11-22T11:17:14.385000Z</time>
      </trkpt>
      <trkpt lat="45.627079010009766" lon="10.373754501342773">
        <ele>458.0</ele>
        <time>2017-11-22T11:17:14.777000Z</time>
      </trkpt>
      <trkpt lat="45.626821517944336" lon="10.373733043670654">
        <ele>458.20665287263046</ele>
        <time>2017-11-22T11:17:15.190000Z</time>
      </trkpt>
      <trkpt lat="45.62643527984619" lon="10.373883247375488">
        <ele>460.52734722534893</ele>
        <time>2017-11-22T11:17:15.832000Z</time>
      </trkpt>
      <trkpt lat="45.62626361846924" lon="10.373754501342773">
        <ele>460.6826525838846</ele>
        <time>2017-11-22T11:17:16.143000Z</time>
      </trkpt>
      <trkpt lat="45.626220703125" lon="10.37360429763794">
        <ele>460.7735658848465</ele>
        <time>2017-11-22T11:17:16.325000Z</time>
      </trkpt>
      <trkpt lat="45.62624216079712" lon="10.373368263244629">
        <ele>460.90693082400475</ele>
        <time>2017-11-22T11:17:16.592000Z</time>
      </trkpt>
      <trkpt lat="45.62649965286255" lon="10.372917652130127">
        <ele>457.61600764815057</ele>
        <time>2017-11-22T11:17:17.244000Z</time>
      </trkpt>
      <trkpt lat="45.626585483551025" lon="10.372552871704102">
        <ele>456.76219511448977</ele>
        <time>2017-11-22T11:17:17.675000Z</time>
      </trkpt>
      <trkpt lat="45.62652111053467" lon="10.372188091278076">
        <ele>453.9275909716151</ele>
        <time>2017-11-22T11:17:18.097000Z</time>
      </trkpt>
      <trkpt lat="45.62613487243652" lon="10.37060022354126">
        <ele>449.8683502289222</ele>
        <time>2017-11-22T11:17:19.982000Z</time>
      </trkpt>
      <trkpt lat="45.62619924545288" lon="10.37036418914795">
        <ele>449.7480465108115</ele>
        <time>2017-11-22T11:17:20.266000Z</time>
      </trkpt>
      <trkpt lat="45.626413905993104" lon="10.370278358459473">
        <ele>449.5966990301851</ele>
        <time>2017-11-22T11:17:20.623000Z</time>
      </trkpt>
      <trkpt lat="45.626606941223145" lon="10.370407104492188">
        <ele>449.27417758100756</ele>
        <time>2017-11-22T11:17:20.964000Z</time>
      </trkpt>
      <trkpt lat="45.626821517944336" lon="10.371308326721191">
        <ele>447.2660674965585</ele>
        <time>2017-11-22T11:17:22.031000Z</time>
      </trkpt>
      <trkpt lat="45.62716484069824" lon="10.372209548950195">
        <ele>446.82470675585165</ele>
        <time>2017-11-22T11:17:23.182000Z</time>
      </trkpt>
      <trkpt lat="45.627336502075195" lon="10.372488498687744">
        <ele>447.45846445529924</ele>
        <time>2017-11-22T11:17:23.599000Z</time>
      </trkpt>
      <trkpt lat="45.62791585922241" lon="10.373024940490723">
        <ele>450.8085046251595</ele>
        <time>2017-11-22T11:17:24.706000Z</time>
      </trkpt>
      <trkpt lat="45.62815189361572" lon="10.373239517211914">
        <ele>451.5645562496579</ele>
        <time>2017-11-22T11:17:25.154000Z</time>
      </trkpt>
      <trkpt lat="45.629117488861084" lon="10.373797416687012">
        <ele>450.5390882478368</ele>
        <time>2017-11-22T11:17:26.824000Z</time>
      </trkpt>
      <trkpt lat="45.62952150307893" lon="10.374223136866492">
        <ele>431.4812629172554</ele>
        <time>2017-11-22T11:17:27.629000Z</time>
      </trkpt>
      <trkpt lat="45.62952468171716" lon="10.374226486310363">
        <ele>431.4073764272771</ele>
        <time>2017-11-22T11:17:27.635000Z</time>
      </trkpt>
      <trkpt lat="45.629524514079094" lon="10.374226402491331">
        <ele>431.40405318633185</ele>
        <time>2017-11-22T11:17:27.635000Z</time>
      </trkpt>
      <trkpt lat="45.62991142272949" lon="10.374634265899658">
        <ele>422.4092262410177</ele>
        <time>2017-11-22T11:17:28.406000Z</time>
      </trkpt>
      <trkpt lat="45.63004016876221" lon="10.374634265899658">
        <ele>415.0</ele>
        <time>2017-11-22T11:17:28.612000Z</time>
      </trkpt>
      <trkpt lat="45.63089847564697" lon="10.373990535736084">
        <ele>416.7497755765189</ele>
        <time>2017-11-22T11:17:30.166000Z</time>
      </trkpt>
      <trkpt lat="45.63139200210571" lon="10.373754501342773">
        <ele>416.61542077879636</ele>
        <time>2017-11-22T11:17:31Z</time>
      </trkpt>
      <trkpt lat="45.631585121154785" lon="10.373797416687012">
        <ele>415.26451896912</ele>
        <time>2017-11-22T11:17:31.313000Z</time>
      </trkpt>
      <trkpt lat="45.63231476582587" lon="10.374312400817871">
        <ele>403.64024925643713</ele>
        <time>2017-11-22T11:17:32.617000Z</time>
      </trkpt>
      <trkpt lat="45.63276529312134" lon="10.374612808227539">
        <ele>398.7078321305318</ele>
        <time>2017-11-22T11:17:33.414000Z</time>
      </trkpt>
      <trkpt lat="45.63319444656372" lon="10.374655723571777">
        <ele>398.38398845691785</ele>
        <time>2017-11-22T11:17:34.104000Z</time>
      </trkpt>
      <trkpt lat="45.63677787780762" lon="10.374033451080322">
        <ele>395.0</ele>
        <time>2017-11-22T11:17:39.891000Z</time>
      </trkpt>
      <trkpt lat="45.638344287872314" lon="10.373926162719727">
        <ele>400.0</ele>
        <time>2017-11-22T11:17:42.405000Z</time>
      </trkpt>
      <trkpt lat="45.63866623677313" lon="10.374011993408203">
        <ele>400.0</ele>
        <time>2017-11-22T11:17:42.930000Z</time>
      </trkpt>
      <trkpt lat="45.63928842544556" lon="10.374290943145752">
        <ele>389.9837884217491</ele>
        <time>2017-11-22T11:17:43.975000Z</time>
      </trkpt>
      <trkpt lat="45.64046859741211" lon="10.374248027801514">
        <ele>383.0</ele>
        <time>2017-11-22T11:17:45.868000Z</time>
      </trkpt>
      <trkpt lat="45.641348361968994" lon="10.374526977539062">
        <ele>383.37644103173056</ele>
        <time>2017-11-22T11:17:47.313000Z</time>
      </trkpt>
      <trkpt lat="45.64201363362372" lon="10.374784469604492">
        <ele>382.99768492669153</ele>
        <time>2017-11-22T11:17:48.418000Z</time>
      </trkpt>
      <trkpt lat="45.6421422958374" lon="10.37484884262085">
        <ele>383.14336290061175</ele>
        <time>2017-11-22T11:17:48.637000Z</time>
      </trkpt>
      <trkpt lat="45.64250707626343" lon="10.374977588653564">
        <ele>383.8782497426673</ele>
        <time>2017-11-22T11:17:49.239000Z</time>
      </trkpt>
      <trkpt lat="45.643558502197266" lon="10.375385284423828">
        <ele>387.0</ele>
        <time>2017-11-22T11:17:50.985000Z</time>
      </trkpt>
      <trkpt lat="45.6442666053772" lon="10.37585735321045">
        <ele>386.70220723660987</ele>
        <time>2017-11-22T11:17:52.237000Z</time>
      </trkpt>
      <trkpt lat="45.64445972442627" lon="10.376179218292236">
        <ele>386.3361352435961</ele>
        <time>2017-11-22T11:17:52.712000Z</time>
      </trkpt>
      <trkpt lat="45.64473867416382" lon="10.37684440612793">
        <ele>384.0</ele>
        <time>2017-11-22T11:17:53.581000Z</time>
      </trkpt>
      <trkpt lat="45.64478423328583" lon="10.377017384592115">
        <ele>383.8070964916736</ele>
        <time>2017-11-22T11:17:53.788000Z</time>
      </trkpt>
      <trkpt lat="45.64478569664061" lon="10.377022940665483">
        <ele>383.8009004283699</ele>
        <time>2017-11-22T11:17:53.795000Z</time>
      </trkpt>
      <trkpt lat="45.64478569664061" lon="10.377023024484515">
        <ele>383.8008129560835</ele>
        <time>2017-11-22T11:17:53.796000Z</time>
      </trkpt>
      <trkpt lat="45.644845962524414" lon="10.377252101898193">
        <ele>383.5453849011887</ele>
        <time>2017-11-22T11:17:54.070000Z</time>
      </trkpt>
      <trkpt lat="45.644845962524414" lon="10.377745628356934">
        <ele>382.36368196609004</ele>
        <time>2017-11-22T11:17:54.623000Z</time>
      </trkpt>
      <trkpt lat="45.64476013183594" lon="10.378024578094482">
        <ele>382.04562631026533</ele>
        <time>2017-11-22T11:17:54.965000Z</time>
      </trkpt>
      <trkpt lat="45.64467438496649" lon="10.378196239471436">
        <ele>381.8254538120444</ele>
        <time>2017-11-22T11:17:55.201000Z</time>
      </trkpt>
      <trkpt lat="45.64467438496649" lon="10.37832498550415">
        <ele>381.6642530273677</ele>
        <time>2017-11-22T11:17:55.345000Z</time>
      </trkpt>
      <trkpt lat="45.6447172164917" lon="10.378389358520508">
        <ele>381.2196502637612</ele>
        <time>2017-11-22T11:17:55.445000Z</time>
      </trkpt>
      <trkpt lat="45.64478158950806" lon="10.378711223602295">
        <ele>380.8004821659165</ele>
        <time>2017-11-22T11:17:55.820000Z</time>
      </trkpt>
      <trkpt lat="45.64476013183594" lon="10.380148887634277">
        <ele>378.0</ele>
        <time>2017-11-22T11:17:57.432000Z</time>
      </trkpt>
      <trkpt lat="45.64505248451797" lon="10.381426059947456">
        <ele>376.85408963917143</ele>
        <time>2017-11-22T11:17:58.938000Z</time>
      </trkpt>
      <trkpt lat="45.645053246989846" lon="10.381429390981793">
        <ele>376.8502315870572</ele>
        <time>2017-11-22T11:17:58.942000Z</time>
      </trkpt>
      <trkpt lat="45.64505333080888" lon="10.381429558619857">
        <ele>376.85000472892847</ele>
        <time>2017-11-22T11:17:58.942000Z</time>
      </trkpt>
      <trkpt lat="45.6451678276062" lon="10.381929874420166">
        <ele>375.2705448105642</ele>
        <time>2017-11-22T11:17:59.532000Z</time>
      </trkpt>
      <trkpt lat="45.645339572802186" lon="10.382702350616455">
        <ele>372.5724677434332</ele>
        <time>2017-11-22T11:18:00.440000Z</time>
      </trkpt>
      <trkpt lat="45.64540394581854" lon="10.382938385009766">
        <ele>372.1068768139482</ele>
        <time>2017-11-22T11:18:00.724000Z</time>
      </trkpt>
      <trkpt lat="45.64551115036011" lon="10.383260250091553">
        <ele>371.45169596124066</ele>
        <time>2017-11-22T11:18:01.124000Z</time>
      </trkpt>
      <trkpt lat="45.6457257270813" lon="10.383496284484863">
        <ele>369.98190800266957</ele>
        <time>2017-11-22T11:18:01.558000Z</time>
      </trkpt>
      <trkpt lat="45.645854473114014" lon="10.38356065750122">
        <ele>368.9105916090994</ele>
        <time>2017-11-22T11:18:01.777000Z</time>
      </trkpt>
      <trkpt lat="45.646823669317" lon="10.383777655391727">
        <ele>365.0</ele>
        <time>2017-11-22T11:18:03.350000Z</time>
      </trkpt>
      <trkpt lat="45.64682895317674" lon="10.383778838440776">
        <ele>364.97847495073734</ele>
        <time>2017-11-22T11:18:03.359000Z</time>
      </trkpt>
      <trkpt lat="45.64682903699577" lon="10.38377900607884">
        <ele>364.9778950587203</ele>
        <time>2017-11-22T11:18:03.359000Z</time>
      </trkpt>
      <trkpt lat="45.647292137145996" lon="10.383882522583008">
        <ele>363.09142204719336</ele>
        <time>2017-11-22T11:18:04.110000Z</time>
      </trkpt>
      <trkpt lat="45.64750671386719" lon="10.384118556976318">
        <ele>361.33532542928225</ele>
        <time>2017-11-22T11:18:04.544000Z</time>
      </trkpt>
      <trkpt lat="45.647571086883545" lon="10.384397506713867">
        <ele>357.8421568787497</ele>
        <time>2017-11-22T11:18:04.873000Z</time>
      </trkpt>
      <trkpt lat="45.64752817153931" lon="10.384740829467773">
        <ele>356.8608735995195</ele>
        <time>2017-11-22T11:18:05.264000Z</time>
      </trkpt>
      <trkpt lat="45.64742088317871" lon="10.385019779205322">
        <ele>357.3030109285514</ele>
        <time>2017-11-22T11:18:05.621000Z</time>
      </trkpt>
      <trkpt lat="45.64686298370361" lon="10.385727882385254">
        <ele>356.5506013611152</ele>
        <time>2017-11-22T11:18:06.817000Z</time>
      </trkpt>
      <trkpt lat="45.6467672273597" lon="10.385900178679377">
        <ele>353.39145390096127</ele>
        <time>2017-11-22T11:18:07.064000Z</time>
      </trkpt>
      <trkpt lat="45.646764412522316" lon="10.385905243456364">
        <ele>353.3867756378381</ele>
        <time>2017-11-22T11:18:07.071000Z</time>
      </trkpt>
      <trkpt lat="45.646764328703284" lon="10.385905411094427">
        <ele>353.3866266177236</ele>
        <time>2017-11-22T11:18:07.071000Z</time>
      </trkpt>
      <trkpt lat="45.646541118621826" lon="10.38630723953247">
        <ele>355.68220164865505</ele>
        <time>2017-11-22T11:18:07.646000Z</time>
      </trkpt>
      <trkpt lat="45.64666986465454" lon="10.387165546417236">
        <ele>350.07204682512946</ele>
        <time>2017-11-22T11:18:08.630000Z</time>
      </trkpt>
      <trkpt lat="45.64645537175238" lon="10.387980937957764">
        <ele>349.4765786229113</ele>
        <time>2017-11-22T11:18:09.606000Z</time>
      </trkpt>
      <trkpt lat="45.64641237258911" lon="10.38830280303955">
        <ele>348.9823061465232</ele>
        <time>2017-11-22T11:18:09.973000Z</time>
      </trkpt>
      <trkpt lat="45.64647674560547" lon="10.388495922088623">
        <ele>348.6595953453516</ele>
        <time>2017-11-22T11:18:10.213000Z</time>
      </trkpt>
      <trkpt lat="45.6465983716031" lon="10.388739256074388">
        <ele>348.4113962635354</ele>
        <time>2017-11-22T11:18:10.548000Z</time>
      </trkpt>
      <trkpt lat="45.6466010492295" lon="10.388744613155723">
        <ele>348.4059320837141</ele>
        <time>2017-11-22T11:18:10.555000Z</time>
      </trkpt>
      <trkpt lat="45.646601133048534" lon="10.388744696974754">
        <ele>348.40581070101933</ele>
        <time>2017-11-22T11:18:10.555000Z</time>
      </trkpt>
      <trkpt lat="45.646627033129334" lon="10.388796329498291">
        <ele>348.3530819394887</ele>
        <time>2017-11-22T11:18:10.626000Z</time>
      </trkpt>
      <trkpt lat="45.64669140614569" lon="10.388860702514648">
        <ele>347.25986007918345</ele>
        <time>2017-11-22T11:18:10.752000Z</time>
      </trkpt>
      <trkpt lat="45.64673432148993" lon="10.388903617858887">
        <ele>347.1977121879436</ele>
        <time>2017-11-22T11:18:10.836000Z</time>
      </trkpt>
      <trkpt lat="45.647077560424805" lon="10.388860702514648">
        <ele>346.7887741832416</ele>
        <time>2017-11-22T11:18:11.388000Z</time>
      </trkpt>
      <trkpt lat="45.6474853400141" lon="10.388603210449219">
        <ele>346.75436927345237</ele>
        <time>2017-11-22T11:18:12.103000Z</time>
      </trkpt>
      <trkpt lat="45.64851522445679" lon="10.387916564941406">
        <ele>347.0</ele>
        <time>2017-11-22T11:18:13.925000Z</time>
      </trkpt>
      <trkpt lat="45.648746277532084" lon="10.387637338026309">
        <ele>346.4017531583202</ele>
        <time>2017-11-22T11:18:14.410000Z</time>
      </trkpt>
      <trkpt lat="45.64875000156462" lon="10.38763283751905">
        <ele>346.3921108026544</ele>
        <time>2017-11-22T11:18:14.418000Z</time>
      </trkpt>
      <trkpt lat="45.648750085383654" lon="10.387632669880986">
        <ele>346.3918258308642</ele>
        <time>2017-11-22T11:18:14.418000Z</time>
      </trkpt>
      <trkpt lat="45.650575160980225" lon="10.385427474975586">
        <ele>339.0</ele>
        <time>2017-11-22T11:18:18.248000Z</time>
      </trkpt>
      <trkpt lat="45.65078982152045" lon="10.384783744812012">
        <ele>333.5862651675243</ele>
        <time>2017-11-22T11:18:19.047000Z</time>
      </trkpt>
      <trkpt lat="45.65091856755316" lon="10.384654998779297">
        <ele>331.5452312989778</ele>
        <time>2017-11-22T11:18:19.299000Z</time>
      </trkpt>
      <trkpt lat="45.65151929855347" lon="10.38433313369751">
        <ele>328.65518326706416</ele>
        <time>2017-11-22T11:18:20.327000Z</time>
      </trkpt>
      <trkpt lat="45.651862705126405" lon="10.384247303009033">
        <ele>325.8803640142465</ele>
        <time>2017-11-22T11:18:20.886000Z</time>
      </trkpt>
      <trkpt lat="45.65227040089667" lon="10.3840970993042">
        <ele>324.669180284931</ele>
        <time>2017-11-22T11:18:21.561000Z</time>
      </trkpt>
      <trkpt lat="45.652377689257264" lon="10.384054183959961">
        <ele>323.90766163645327</ele>
        <time>2017-11-22T11:18:21.740000Z</time>
      </trkpt>
      <trkpt lat="45.652527809143066" lon="10.384011268615723">
        <ele>321.19453367806926</ele>
        <time>2017-11-22T11:18:21.985000Z</time>
      </trkpt>
      <trkpt lat="45.652828216552734" lon="10.383903980255127">
        <ele>319.07801834573644</ele>
        <time>2017-11-22T11:18:22.481000Z</time>
      </trkpt>
      <trkpt lat="45.65351486206055" lon="10.384054183959961">
        <ele>310.3297663669821</ele>
        <time>2017-11-22T11:18:23.595000Z</time>
      </trkpt>
      <trkpt lat="45.654051303863525" lon="10.384290218353271">
        <ele>308.7201393412195</ele>
        <time>2017-11-22T11:18:24.495000Z</time>
      </trkpt>
      <trkpt lat="45.654401690398366" lon="10.384543413131906">
        <ele>307.96448320984973</ele>
        <time>2017-11-22T11:18:25.124000Z</time>
      </trkpt>
      <trkpt lat="45.65440636128187" lon="10.384546788409352">
        <ele>307.9632969199145</ele>
        <time>2017-11-22T11:18:25.132000Z</time>
      </trkpt>
      <trkpt lat="45.6544064451009" lon="10.384546788409352">
        <ele>307.96327791829367</ele>
        <time>2017-11-22T11:18:25.132000Z</time>
      </trkpt>
      <trkpt lat="45.6544376257807" lon="10.38456916809082">
        <ele>307.95536962947807</ele>
        <time>2017-11-22T11:18:25.188000Z</time>
      </trkpt>
      <trkpt lat="45.65452337265015" lon="10.384633541107178">
        <ele>307.93341717540056</ele>
        <time>2017-11-22T11:18:25.343000Z</time>
      </trkpt>
      <trkpt lat="45.65467357635498" lon="10.384912490844727">
        <ele>307.87762038246547</ele>
        <time>2017-11-22T11:18:25.738000Z</time>
      </trkpt>
      <trkpt lat="45.65469511784613" lon="10.385019779205322">
        <ele>308.2942550848846</ele>
        <time>2017-11-22T11:18:25.863000Z</time>
      </trkpt>
      <trkpt lat="45.654802322387695" lon="10.385148525238037">
        <ele>308.44368860720004</ele>
        <time>2017-11-22T11:18:26.087000Z</time>
      </trkpt>
      <trkpt lat="45.65493115223944" lon="10.385127067565918">
        <ele>308.5821592692367</ele>
        <time>2017-11-22T11:18:26.295000Z</time>
      </trkpt>
      <trkpt lat="45.65495252609253" lon="10.385127067565918">
        <ele>308.60497848372984</ele>
        <time>2017-11-22T11:18:26.329000Z</time>
      </trkpt>
      <trkpt lat="45.65523147583008" lon="10.385148525238037">
        <ele>309.5698884372175</ele>
        <time>2017-11-22T11:18:26.777000Z</time>
      </trkpt>
      <trkpt lat="45.655338848009706" lon="10.385212898254395">
        <ele>309.6941798006853</ele>
        <time>2017-11-22T11:18:26.964000Z</time>
      </trkpt>
      <trkpt lat="45.65546759404242" lon="10.38532018661499">
        <ele>309.8532493908075</ele>
        <time>2017-11-22T11:18:27.203000Z</time>
      </trkpt>
      <trkpt lat="45.65546751022339" lon="10.38532018661499">
        <ele>309.85333887792314</ele>
        <time>2017-11-22T11:18:27.204000Z</time>
      </trkpt>
      <trkpt lat="45.6561541557312" lon="10.385792255401611">
        <ele>311.0</ele>
        <time>2017-11-22T11:18:28.425000Z</time>
      </trkpt>
      <trkpt lat="45.65791368484497" lon="10.3855562210083">
        <ele>317.0</ele>
        <time>2017-11-22T11:18:31.258000Z</time>
      </trkpt>
      <trkpt lat="45.658063888549805" lon="10.38557767868042">
        <ele>317.5594184489548</ele>
        <time>2017-11-22T11:18:31.500000Z</time>
      </trkpt>
      <trkpt lat="45.6581711769104" lon="10.385749340057373">
        <ele>318.15590859151007</ele>
        <time>2017-11-22T11:18:31.758000Z</time>
      </trkpt>
      <trkpt lat="45.65819263458252" lon="10.385942459106445">
        <ele>320.2163706140031</ele>
        <time>2017-11-22T11:18:31.977000Z</time>
      </trkpt>
      <trkpt lat="45.658085346221924" lon="10.386135578155518">
        <ele>321.1337004250281</ele>
        <time>2017-11-22T11:18:32.253000Z</time>
      </trkpt>
      <trkpt lat="45.657527446746826" lon="10.386221408843994">
        <ele>324.1189507850623</ele>
        <time>2017-11-22T11:18:33.153000Z</time>
      </trkpt>
      <trkpt lat="45.65720558166504" lon="10.386478900909424">
        <ele>326.74752319868276</ele>
        <time>2017-11-22T11:18:33.744000Z</time>
      </trkpt>
      <trkpt lat="45.656819343566895" lon="10.386972427368164">
        <ele>336.12805672139484</ele>
        <time>2017-11-22T11:18:34.574000Z</time>
      </trkpt>
      <trkpt lat="45.6566047668457" lon="10.387423038482666">
        <ele>333.89401569426445</ele>
        <time>2017-11-22T11:18:35.185000Z</time>
      </trkpt>
      <trkpt lat="45.656540393829346" lon="10.388195514678955">
        <ele>340.55589836443454</ele>
        <time>2017-11-22T11:18:36.057000Z</time>
      </trkpt>
      <trkpt lat="45.6566047668457" lon="10.388367176055908">
        <ele>342.70147002324137</ele>
        <time>2017-11-22T11:18:36.275000Z</time>
      </trkpt>
      <trkpt lat="45.65701246261597" lon="10.388946533203125">
        <ele>352.46258536442593</ele>
        <time>2017-11-22T11:18:37.196000Z</time>
      </trkpt>
      <trkpt lat="45.657076835632324" lon="10.389182567596436">
        <ele>351.1856417562365</ele>
        <time>2017-11-22T11:18:37.480000Z</time>
      </trkpt>
      <trkpt lat="45.65739870071411" lon="10.389676094055176">
        <ele>354.0</ele>
        <time>2017-11-22T11:18:38.236000Z</time>
      </trkpt>
      <trkpt lat="45.657527446746826" lon="10.389740467071533">
        <ele>356.0434362946227</ele>
        <time>2017-11-22T11:18:38.455000Z</time>
      </trkpt>
      <trkpt lat="45.65911531448364" lon="10.389783382415771">
        <ele>356.21591468970956</ele>
        <time>2017-11-22T11:18:41.001000Z</time>
      </trkpt>
      <trkpt lat="45.65995216369629" lon="10.389976501464844">
        <ele>349.0</ele>
        <time>2017-11-22T11:18:42.360000Z</time>
      </trkpt>
      <trkpt lat="45.66059589385986" lon="10.390212535858154">
        <ele>354.2602104809776</ele>
        <time>2017-11-22T11:18:43.425000Z</time>
      </trkpt>
      <trkpt lat="45.66087484359741" lon="10.390384197235107">
        <ele>353.4740253702266</ele>
        <time>2017-11-22T11:18:43.912000Z</time>
      </trkpt>
      <trkpt lat="45.66169023513794" lon="10.391242504119873">
        <ele>358.7828080087681</ele>
        <time>2017-11-22T11:18:45.535000Z</time>
      </trkpt>
      <trkpt lat="45.66267728805542" lon="10.3920578956604">
        <ele>373.18002018920726</ele>
        <time>2017-11-22T11:18:47.362000Z</time>
      </trkpt>
      <trkpt lat="45.66390045918524" lon="10.392251014709473">
        <ele>380.0</ele>
        <time>2017-11-22T11:18:49.335000Z</time>
      </trkpt>
      <trkpt lat="45.66435098648071" lon="10.3920578956604">
        <ele>381.94527555278813</ele>
        <time>2017-11-22T11:18:50.089000Z</time>
      </trkpt>
      <trkpt lat="45.66458702087402" lon="10.392036437988281">
        <ele>383.4106540122262</ele>
        <time>2017-11-22T11:18:50.468000Z</time>
      </trkpt>
      <trkpt lat="45.66484451293945" lon="10.392165184020996">
        <ele>385.1006251640831</ele>
        <time>2017-11-22T11:18:50.905000Z</time>
      </trkpt>
      <trkpt lat="45.66503771580756" lon="10.392401218414307">
        <ele>388.67462153273544</ele>
        <time>2017-11-22T11:18:51.312000Z</time>
      </trkpt>
      <trkpt lat="45.665037631988525" lon="10.392401218414307">
        <ele>388.67514086156035</ele>
        <time>2017-11-22T11:18:51.312000Z</time>
      </trkpt>
      <trkpt lat="45.66535949707031" lon="10.392916202545166">
        <ele>394.0</ele>
        <time>2017-11-22T11:18:52.086000Z</time>
      </trkpt>
      <trkpt lat="45.665531158447266" lon="10.393109321594238">
        <ele>394.4166816663214</ele>
        <time>2017-11-22T11:18:52.436000Z</time>
      </trkpt>
      <trkpt lat="45.665664147856184" lon="10.393132681330671">
        <ele>394.6723589198861</ele>
        <time>2017-11-22T11:18:52.651000Z</time>
      </trkpt>
      <trkpt lat="45.66566954366863" lon="10.393133629113436">
        <ele>394.6827325772062</ele>
        <time>2017-11-22T11:18:52.660000Z</time>
      </trkpt>
      <trkpt lat="45.665669459849596" lon="10.393133629113436">
        <ele>394.6828925219815</ele>
        <time>2017-11-22T11:18:52.660000Z</time>
      </trkpt>
      <trkpt lat="45.66589602269232" lon="10.393173694610596">
        <ele>397.4518455380583</ele>
        <time>2017-11-22T11:18:53.026000Z</time>
      </trkpt>
      <trkpt lat="45.66641100682318" lon="10.393452644348145">
        <ele>397.16926252068816</ele>
        <time>2017-11-22T11:18:53.909000Z</time>
      </trkpt>
      <trkpt lat="45.66709756851196" lon="10.394740104675293">
        <ele>398.417244088344</ele>
        <time>2017-11-22T11:18:55.723000Z</time>
      </trkpt>
      <trkpt lat="45.66737660206854" lon="10.395104885101318">
        <ele>394.58969926276717</ele>
        <time>2017-11-22T11:18:56.329000Z</time>
      </trkpt>
      <trkpt lat="45.66737651824951" lon="10.395104885101318">
        <ele>394.5896495505433</ele>
        <time>2017-11-22T11:18:56.329000Z</time>
      </trkpt>
      <trkpt lat="45.66771984100342" lon="10.395534038543701">
        <ele>394.652615362523</ele>
        <time>2017-11-22T11:18:57.060000Z</time>
      </trkpt>
      <trkpt lat="45.667805671691895" lon="10.395748615264893">
        <ele>394.550143069014</ele>
        <time>2017-11-22T11:18:57.337000Z</time>
      </trkpt>
      <trkpt lat="45.66789150238037" lon="10.396778583526611">
        <ele>394.4535708913527</ele>
        <time>2017-11-22T11:18:58.499000Z</time>
      </trkpt>
      <trkpt lat="45.668041706085205" lon="10.397336483001709">
        <ele>394.0</ele>
        <time>2017-11-22T11:18:59.169000Z</time>
      </trkpt>
      <trkpt lat="45.66834211349487" lon="10.397701263427734">
        <ele>394.05719572102515</ele>
        <time>2017-11-22T11:18:59.801000Z</time>
      </trkpt>
      <trkpt lat="45.668857181444764" lon="10.397872924804688">
        <ele>394.13397026071317</ele>
        <time>2017-11-22T11:19:00.649000Z</time>
      </trkpt>
      <trkpt lat="45.67023038864136" lon="10.397894382476807">
        <ele>395.0</ele>
        <time>2017-11-22T11:19:02.851000Z</time>
      </trkpt>
      <trkpt lat="45.670509338378906" lon="10.398001670837402">
        <ele>392.5156914698793</ele>
        <time>2017-11-22T11:19:03.314000Z</time>
      </trkpt>
      <trkpt lat="45.67087411880493" lon="10.39832353591919">
        <ele>387.16323256792975</ele>
        <time>2017-11-22T11:19:04.001000Z</time>
      </trkpt>
      <trkpt lat="45.67089557647705" lon="10.398473739624023">
        <ele>381.5751695259418</ele>
        <time>2017-11-22T11:19:04.173000Z</time>
      </trkpt>
      <trkpt lat="45.67090099936911" lon="10.398485724214085">
        <ele>381.584511289501</ele>
        <time>2017-11-22T11:19:04.189000Z</time>
      </trkpt>
      <trkpt lat="45.67090395838022" lon="10.398492263630033">
        <ele>381.5896086411069</ele>
        <time>2017-11-22T11:19:04.198000Z</time>
      </trkpt>
      <trkpt lat="45.67090387456119" lon="10.398492012172937">
        <ele>381.5897909259252</ele>
        <time>2017-11-22T11:19:04.198000Z</time>
      </trkpt>
      <trkpt lat="45.67089557647705" lon="10.398473739624023">
        <ele>381.604049304349</ele>
        <time>2017-11-22T11:19:04.222000Z</time>
      </trkpt>
      <trkpt lat="45.67087420262396" lon="10.39832353591919">
        <ele>386.37100904668796</ele>
        <time>2017-11-22T11:19:04.394000Z</time>
      </trkpt>
      <trkpt lat="45.671067237854004" lon="10.398516654968262">
        <ele>381.924873207884</ele>
        <time>2017-11-22T11:19:04.772000Z</time>
      </trkpt>
      <trkpt lat="45.67123889923096" lon="10.3985595703125">
        <ele>382.08803843547133</ele>
        <time>2017-11-22T11:19:05.051000Z</time>
      </trkpt>
      <trkpt lat="45.671517848968506" lon="10.39830207824707">
        <ele>387.0655133290159</ele>
        <time>2017-11-22T11:19:05.583000Z</time>
      </trkpt>
      <trkpt lat="45.6716251373291" lon="10.398280620574951">
        <ele>387.16694652354863</ele>
        <time>2017-11-22T11:19:05.757000Z</time>
      </trkpt>
      <trkpt lat="45.67171096801758" lon="10.398366451263428">
        <ele>385.0192025670946</ele>
        <time>2017-11-22T11:19:05.925000Z</time>
      </trkpt>
      <trkpt lat="45.67190408706665" lon="10.398774147033691">
        <ele>384.53358047647583</ele>
        <time>2017-11-22T11:19:06.477000Z</time>
      </trkpt>
      <trkpt lat="45.672032833099365" lon="10.398902893066406">
        <ele>383.5201281120732</ele>
        <time>2017-11-22T11:19:06.729000Z</time>
      </trkpt>
      <trkpt lat="45.67259073257446" lon="10.399010181427002">
        <ele>387.5545897747016</ele>
        <time>2017-11-22T11:19:07.631000Z</time>
      </trkpt>
      <trkpt lat="45.67289113998413" lon="10.400147438049316">
        <ele>369.40619329464243</ele>
        <time>2017-11-22T11:19:08.993000Z</time>
      </trkpt>
      <trkpt lat="45.67297697067261" lon="10.400276184082031">
        <ele>368.4570536998752</ele>
        <time>2017-11-22T11:19:09.192000Z</time>
      </trkpt>
      <trkpt lat="45.67398548126221" lon="10.401134490966797">
        <ele>355.9569522742606</ele>
        <time>2017-11-22T11:19:11.073000Z</time>
      </trkpt>
      <trkpt lat="45.67422151565552" lon="10.401155948638916">
        <ele>360.26279732116274</ele>
        <time>2017-11-22T11:19:11.452000Z</time>
      </trkpt>
      <trkpt lat="45.67432880401611" lon="10.40107011795044">
        <ele>361.46113009619603</ele>
        <time>2017-11-22T11:19:11.649000Z</time>
      </trkpt>
      <trkpt lat="45.674500465393066" lon="10.400705337524414">
        <ele>371.45714427083703</ele>
        <time>2017-11-22T11:19:12.142000Z</time>
      </trkpt>
      <trkpt lat="45.67462921142578" lon="10.400640964508057">
        <ele>372.7867466299072</ele>
        <time>2017-11-22T11:19:12.361000Z</time>
      </trkpt>
      <trkpt lat="45.67473649978638" lon="10.400683879852295">
        <ele>372.2352585465299</ele>
        <time>2017-11-22T11:19:12.540000Z</time>
      </trkpt>
      <trkpt lat="45.6751012802124" lon="10.401005744934082">
        <ele>363.1137834153113</ele>
        <time>2017-11-22T11:19:13.227000Z</time>
      </trkpt>
      <trkpt lat="45.675508975982666" lon="10.401241779327393">
        <ele>359.93125928267835</ele>
        <time>2017-11-22T11:19:13.932000Z</time>
      </trkpt>
      <trkpt lat="45.67643165588379" lon="10.401391983032227">
        <ele>353.54459883827076</ele>
        <time>2017-11-22T11:19:15.421000Z</time>
      </trkpt>
      <trkpt lat="45.676517486572266" lon="10.40154218673706">
        <ele>352.5004702610999</ele>
        <time>2017-11-22T11:19:15.638000Z</time>
      </trkpt>
      <trkpt lat="45.67643165588379" lon="10.40182113647461">
        <ele>343.5270014994476</ele>
        <time>2017-11-22T11:19:15.979000Z</time>
      </trkpt>
      <trkpt lat="45.676281452178955" lon="10.401864051818848">
        <ele>342.34740197825766</ele>
        <time>2017-11-22T11:19:16.225000Z</time>
      </trkpt>
      <trkpt lat="45.67501553334296" lon="10.40179967880249">
        <ele>336.55346543812544</ele>
        <time>2017-11-22T11:19:18.256000Z</time>
      </trkpt>
      <trkpt lat="45.67490824498236" lon="10.40179967880249">
        <ele>333.7925129343409</ele>
        <time>2017-11-22T11:19:18.428000Z</time>
      </trkpt>
      <trkpt lat="45.674006938934326" lon="10.401842594146729">
        <ele>332.0</ele>
        <time>2017-11-22T11:19:19.874000Z</time>
      </trkpt>
      <trkpt lat="45.67396402359009" lon="10.401928424835205">
        <ele>331.8071156175096</ele>
        <time>2017-11-22T11:19:19.992000Z</time>
      </trkpt>
      <trkpt lat="45.67398548126221" lon="10.401992797851562">
        <ele>331.6767689475121</ele>
        <time>2017-11-22T11:19:20.072000Z</time>
      </trkpt>
      <trkpt lat="45.674049854278564" lon="10.402078628540039">
        <ele>331.44665350728195</ele>
        <time>2017-11-22T11:19:20.213000Z</time>
      </trkpt>
      <trkpt lat="45.67435026168823" lon="10.402143001556396">
        <ele>331.6521766230639</ele>
        <time>2017-11-22T11:19:20.700000Z</time>
      </trkpt>
      <trkpt lat="45.674543380737305" lon="10.40229320526123">
        <ele>330.30920823855786</ele>
        <time>2017-11-22T11:19:21.052000Z</time>
      </trkpt>
      <trkpt lat="45.6746729438636" lon="10.402501207464026">
        <ele>323.7862162322786</ele>
        <time>2017-11-22T11:19:21.364000Z</time>
      </trkpt>
      <trkpt lat="45.6746765691787" lon="10.402507027611136">
        <ele>323.75292823705445</ele>
        <time>2017-11-22T11:19:21.373000Z</time>
      </trkpt>
      <trkpt lat="45.67467648535967" lon="10.402506776154041">
        <ele>323.7517387852134</ele>
        <time>2017-11-22T11:19:21.373000Z</time>
      </trkpt>
      <trkpt lat="45.67617424763739" lon="10.404911041259766">
        <ele>306.0</ele>
        <time>2017-11-22T11:19:24.981000Z</time>
      </trkpt>
      <trkpt lat="45.67621716298163" lon="10.404996871948242">
        <ele>305.8485484682426</ele>
        <time>2017-11-22T11:19:25.099000Z</time>
      </trkpt>
      <trkpt lat="45.67628153599799" lon="10.405104160308838">
        <ele>303.5949415671052</ele>
        <time>2017-11-22T11:19:25.257000Z</time>
      </trkpt>
      <trkpt lat="45.67673214711249" lon="10.405833721160889">
        <ele>297.88686015115246</ele>
        <time>2017-11-22T11:19:26.348000Z</time>
      </trkpt>
      <trkpt lat="45.676796520128846" lon="10.405898094177246">
        <ele>297.42038803259</ele>
        <time>2017-11-22T11:19:26.474000Z</time>
      </trkpt>
      <trkpt lat="45.677247047424316" lon="10.406649112701416">
        <ele>295.5928059810696</ele>
        <time>2017-11-22T11:19:27.583000Z</time>
      </trkpt>
      <trkpt lat="45.67746162414551" lon="10.407121181488037">
        <ele>293.99926091938795</ele>
        <time>2017-11-22T11:19:28.214000Z</time>
      </trkpt>
      <trkpt lat="45.677590453997254" lon="10.407979488372803">
        <ele>292.221091269957</ele>
        <time>2017-11-22T11:19:29.197000Z</time>
      </trkpt>
      <trkpt lat="45.67763336934149" lon="10.408258438110352">
        <ele>291.46995214899135</ele>
        <time>2017-11-22T11:19:29.517000Z</time>
      </trkpt>
      <trkpt lat="45.67767628468573" lon="10.408687591552734">
        <ele>288.66322169365213</ele>
        <time>2017-11-22T11:19:30.003000Z</time>
      </trkpt>
      <trkpt lat="45.67769921532668" lon="10.408860613613763">
        <ele>288.3718332247889</ele>
        <time>2017-11-22T11:19:30.200000Z</time>
      </trkpt>
      <trkpt lat="45.6777002569288" lon="10.408868473023176">
        <ele>288.35859710499744</ele>
        <time>2017-11-22T11:19:30.209000Z</time>
      </trkpt>
      <trkpt lat="45.6777002569288" lon="10.408868305385113">
        <ele>288.3583197296128</ele>
        <time>2017-11-22T11:19:30.210000Z</time>
      </trkpt>
      <trkpt lat="45.67771911621094" lon="10.409009456634521">
        <ele>288.12053778713</ele>
        <time>2017-11-22T11:19:30.371000Z</time>
      </trkpt>
      <trkpt lat="45.67771920002997" lon="10.409395694732666">
        <ele>287.14813175228477</ele>
        <time>2017-11-22T11:19:30.804000Z</time>
      </trkpt>
      <trkpt lat="45.67765474319458" lon="10.409502983093262">
        <ele>287.0814201499676</ele>
        <time>2017-11-22T11:19:30.962000Z</time>
      </trkpt>
      <trkpt lat="45.67741870880127" lon="10.409717559814453">
        <ele>285.89273379435133</ele>
        <time>2017-11-22T11:19:31.410000Z</time>
      </trkpt>
      <trkpt lat="45.67563772201538" lon="10.410232543945312">
        <ele>285.0</ele>
        <time>2017-11-22T11:19:34.323000Z</time>
      </trkpt>
      <trkpt lat="45.67359924316406" lon="10.409395694732666">
        <ele>282.0</ele>
        <time>2017-11-22T11:19:37.723000Z</time>
      </trkpt>
      <trkpt lat="45.67289248115473" lon="10.409360232051872">
        <ele>284.379304797304</ele>
        <time>2017-11-22T11:19:38.857000Z</time>
      </trkpt>
      <trkpt lat="45.672885943204165" lon="10.409359904006124">
        <ele>284.38281358235986</ele>
        <time>2017-11-22T11:19:38.868000Z</time>
      </trkpt>
      <trkpt lat="45.67288585938513" lon="10.409359904006124">
        <ele>284.3828743042377</ele>
        <time>2017-11-22T11:19:38.868000Z</time>
      </trkpt>
      <trkpt lat="45.6727409362793" lon="10.409352779388428">
        <ele>284.48792435821804</ele>
        <time>2017-11-22T11:19:39.100000Z</time>
      </trkpt>
      <trkpt lat="45.67113161087036" lon="10.409696102142334">
        <ele>286.0</ele>
        <time>2017-11-22T11:19:41.708000Z</time>
      </trkpt>
      <trkpt lat="45.67089557647705" lon="10.409674644470215">
        <ele>286.1271006021837</ele>
        <time>2017-11-22T11:19:42.087000Z</time>
      </trkpt>
      <trkpt lat="45.67074537277222" lon="10.409588813781738">
        <ele>286.54735061914863</ele>
        <time>2017-11-22T11:19:42.346000Z</time>
      </trkpt>
      <trkpt lat="45.67063808441162" lon="10.409631729125977">
        <ele>286.60721733588167</ele>
        <time>2017-11-22T11:19:42.525000Z</time>
      </trkpt>
      <trkpt lat="45.670573711395264" lon="10.409760475158691">
        <ele>286.6666666666667</ele>
        <time>2017-11-22T11:19:42.702000Z</time>
      </trkpt>
      <trkpt lat="45.67033767700195" lon="10.409910678863525">
        <ele>286.6343305556713</ele>
        <time>2017-11-22T11:19:43.116000Z</time>
      </trkpt>
      <trkpt lat="45.66982051898575" lon="10.410013249514504">
        <ele>286.2356411908028</ele>
        <time>2017-11-22T11:19:43.953000Z</time>
      </trkpt>
      <trkpt lat="45.66981405951083" lon="10.41001453064382">
        <ele>286.2281012672052</ele>
        <time>2017-11-22T11:19:43.963000Z</time>
      </trkpt>
      <trkpt lat="45.669813975691795" lon="10.41001453064382">
        <ele>286.22800435445816</ele>
        <time>2017-11-22T11:19:43.963000Z</time>
      </trkpt>
      <trkpt lat="45.66795587539673" lon="10.410382747650146">
        <ele>284.0591403373389</ele>
        <time>2017-11-22T11:19:46.970000Z</time>
      </trkpt>
      <trkpt lat="45.667312145233154" lon="10.41079044342041">
        <ele>278.0</ele>
        <time>2017-11-22T11:19:48.099000Z</time>
      </trkpt>
      <trkpt lat="45.66544532775879" lon="10.411691665649414">
        <ele>284.0</ele>
        <time>2017-11-22T11:19:51.258000Z</time>
      </trkpt>
      <trkpt lat="45.66490888595581" lon="10.412099361419678">
        <ele>279.0626091570651</ele>
        <time>2017-11-22T11:19:52.232000Z</time>
      </trkpt>
      <trkpt lat="45.66460195022461" lon="10.412386510834265">
        <ele>278.8991633901729</ele>
        <time>2017-11-22T11:19:52.820000Z</time>
      </trkpt>
      <trkpt lat="45.664596827700734" lon="10.412391303107142">
        <ele>278.8994692968605</ele>
        <time>2017-11-22T11:19:52.830000Z</time>
      </trkpt>
      <trkpt lat="45.6645967438817" lon="10.412391470745206">
        <ele>278.89947649702566</ele>
        <time>2017-11-22T11:19:52.830000Z</time>
      </trkpt>
      <trkpt lat="45.66291340626776" lon="10.413966178894043">
        <ele>280.0</ele>
        <time>2017-11-22T11:19:56.054000Z</time>
      </trkpt>
      <trkpt lat="45.66237688064575" lon="10.414502620697021">
        <ele>279.75958347259234</ele>
        <time>2017-11-22T11:19:57.103000Z</time>
      </trkpt>
      <trkpt lat="45.65995216369629" lon="10.416970252990723">
        <ele>276.0</ele>
        <time>2017-11-22T11:20:01.873000Z</time>
      </trkpt>
      <trkpt lat="45.6577205657959" lon="10.418901443481445">
        <ele>276.0</ele>
        <time>2017-11-22T11:20:06.054000Z</time>
      </trkpt>
      <trkpt lat="45.65771014715501" lon="10.418923778055992">
        <ele>276.0</ele>
        <time>2017-11-22T11:20:06.084000Z</time>
      </trkpt>
      <trkpt lat="45.6577065680176" lon="10.4189314506948">
        <ele>276.0078898378952</ele>
        <time>2017-11-22T11:20:06.094000Z</time>
      </trkpt>
      <trkpt lat="45.65770648419857" lon="10.418931618332863">
        <ele>276.0081897463577</ele>
        <time>2017-11-22T11:20:06.094000Z</time>
      </trkpt>
      <trkpt lat="45.657570362091064" lon="10.419223308563232">
        <ele>277.1851868995132</ele>
        <time>2017-11-22T11:20:06.487000Z</time>
      </trkpt>
      <trkpt lat="45.657570445910096" lon="10.419223308563232">
        <ele>277.18536139212614</ele>
        <time>2017-11-22T11:20:06.487000Z</time>
      </trkpt>
      <trkpt lat="45.65752753056586" lon="10.419416427612305">
        <ele>277.48021972285966</ele>
        <time>2017-11-22T11:20:06.714000Z</time>
      </trkpt>
      <trkpt lat="45.657527446746826" lon="10.419974327087402">
        <ele>278.2919911495477</ele>
        <time>2017-11-22T11:20:07.339000Z</time>
      </trkpt>
      <trkpt lat="45.65767773427069" lon="10.422742366790771">
        <ele>286.0</ele>
        <time>2017-11-22T11:20:10.450000Z</time>
      </trkpt>
      <trkpt lat="45.65767773427069" lon="10.422999858856201">
        <ele>285.4596103373089</ele>
        <time>2017-11-22T11:20:10.739000Z</time>
      </trkpt>
      <trkpt lat="45.65767765045166" lon="10.423085689544678">
        <ele>285.27948027365437</ele>
        <time>2017-11-22T11:20:10.835000Z</time>
      </trkpt>
      <trkpt lat="45.65763473510742" lon="10.423579216003418">
        <ele>283.2357481192543</ele>
        <time>2017-11-22T11:20:11.392000Z</time>
      </trkpt>
      <trkpt lat="45.6576132774353" lon="10.423836708068848">
        <ele>282.3506751551742</ele>
        <time>2017-11-22T11:20:11.683000Z</time>
      </trkpt>
      <trkpt lat="45.657548904418945" lon="10.424351692199707">
        <ele>277.6805404776071</ele>
        <time>2017-11-22T11:20:12.269000Z</time>
      </trkpt>
      <trkpt lat="45.65748461522162" lon="10.42478084564209">
        <ele>275.9460494018462</ele>
        <time>2017-11-22T11:20:12.761000Z</time>
      </trkpt>
      <trkpt lat="45.657377326861024" lon="10.425124168395996">
        <ele>274.07878671777</ele>
        <time>2017-11-22T11:20:13.182000Z</time>
      </trkpt>
      <trkpt lat="45.65709829330444" lon="10.425724983215332">
        <ele>273.82107181027123</ele>
        <time>2017-11-22T11:20:13.990000Z</time>
      </trkpt>
      <trkpt lat="45.65677651204169" lon="10.426089763641357">
        <ele>276.6112219934127</ele>
        <time>2017-11-22T11:20:14.648000Z</time>
      </trkpt>
      <trkpt lat="45.65668187104148" lon="10.426188450496822">
        <ele>276.5513616344752</ele>
        <time>2017-11-22T11:20:14.836000Z</time>
      </trkpt>
      <trkpt lat="45.65667651593685" lon="10.426194034516811">
        <ele>276.5479745375231</ele>
        <time>2017-11-22T11:20:14.847000Z</time>
      </trkpt>
      <trkpt lat="45.65667659975588" lon="10.42619395069778">
        <ele>276.54792226582714</ele>
        <time>2017-11-22T11:20:14.847000Z</time>
      </trkpt>
      <trkpt lat="45.655810832977295" lon="10.427098274230957">
        <ele>274.0</ele>
        <time>2017-11-22T11:20:16.565000Z</time>
      </trkpt>
      <trkpt lat="45.65523147583008" lon="10.427570343017578">
        <ele>278.7057826744687</ele>
        <time>2017-11-22T11:20:17.634000Z</time>
      </trkpt>
      <trkpt lat="45.65471649169922" lon="10.427870750427246">
        <ele>272.09077682623234</ele>
        <time>2017-11-22T11:20:18.526000Z</time>
      </trkpt>
      <trkpt lat="45.65452337265015" lon="10.427892208099365">
        <ele>271.17999617581256</ele>
        <time>2017-11-22T11:20:18.837000Z</time>
      </trkpt>
      <trkpt lat="45.6544376257807" lon="10.427892208099365">
        <ele>270.90277531517773</ele>
        <time>2017-11-22T11:20:18.974000Z</time>
      </trkpt>
      <trkpt lat="45.65426588058472" lon="10.428106784820557">
        <ele>270.1655905363589</ele>
        <time>2017-11-22T11:20:19.340000Z</time>
      </trkpt>
      <trkpt lat="45.65422296524048" lon="10.42827844619751">
        <ele>270.1812516278769</ele>
        <time>2017-11-22T11:20:19.544000Z</time>
      </trkpt>
      <trkpt lat="45.653836727142334" lon="10.42879343032837">
        <ele>269.9128048529178</ele>
        <time>2017-11-22T11:20:20.390000Z</time>
      </trkpt>
      <trkpt lat="45.65317153930664" lon="10.429844856262207">
        <ele>269.7012985193532</ele>
        <time>2017-11-22T11:20:21.979000Z</time>
      </trkpt>
      <trkpt lat="45.652828216552734" lon="10.430488586425781">
        <ele>271.95293550300244</ele>
        <time>2017-11-22T11:20:22.886000Z</time>
      </trkpt>
      <trkpt lat="45.652724343703866" lon="10.430697544675532">
        <ele>271.81655220175713</ele>
        <time>2017-11-22T11:20:23.173000Z</time>
      </trkpt>
      <trkpt lat="45.65272050909698" lon="10.430705258622766">
        <ele>271.8115174400688</ele>
        <time>2017-11-22T11:20:23.184000Z</time>
      </trkpt>
      <trkpt lat="45.65272059291601" lon="10.43070500716567">
        <ele>271.8113692617074</ele>
        <time>2017-11-22T11:20:23.184000Z</time>
      </trkpt>
      <trkpt lat="45.650832736864686" lon="10.43450117111206">
        <ele>267.0</ele>
        <time>2017-11-22T11:20:28.405000Z</time>
      </trkpt>
      <trkpt lat="45.6504035834223" lon="10.435552597045898">
        <ele>272.0</ele>
        <time>2017-11-22T11:20:29.769000Z</time>
      </trkpt>
      <trkpt lat="45.65040349960327" lon="10.435552597045898">
        <ele>272.0000794466325</ele>
        <time>2017-11-22T11:20:29.769000Z</time>
      </trkpt>
      <trkpt lat="45.65025329589844" lon="10.436239242553711">
        <ele>275.14345330882304</ele>
        <time>2017-11-22T11:20:30.575000Z</time>
      </trkpt>
      <trkpt lat="45.65018892288208" lon="10.43677568435669">
        <ele>275.5040837267105</ele>
        <time>2017-11-22T11:20:31.185000Z</time>
      </trkpt>
      <trkpt lat="45.65018892288208" lon="10.437419414520264">
        <ele>275.930601383573</ele>
        <time>2017-11-22T11:20:31.906000Z</time>
      </trkpt>
      <trkpt lat="45.65025329589844" lon="10.4380202293396">
        <ele>276.47570760275715</ele>
        <time>2017-11-22T11:20:32.587000Z</time>
      </trkpt>
      <trkpt lat="45.650832653045654" lon="10.441560745239258">
        <ele>272.0</ele>
        <time>2017-11-22T11:20:36.662000Z</time>
      </trkpt>
      <trkpt lat="45.65089702606201" lon="10.44252634048462">
        <ele>272.4714445403342</ele>
        <time>2017-11-22T11:20:37.749000Z</time>
      </trkpt>
      <trkpt lat="45.65089702606201" lon="10.443470478057861">
        <ele>271.6147562341307</ele>
        <time>2017-11-22T11:20:38.807000Z</time>
      </trkpt>
      <trkpt lat="45.65051078796387" lon="10.446474552154541">
        <ele>269.0</ele>
        <time>2017-11-22T11:20:42.230000Z</time>
      </trkpt>
      <trkpt lat="45.65023183822632" lon="10.447354316711426">
        <ele>272.0</ele>
        <time>2017-11-22T11:20:43.313000Z</time>
      </trkpt>
      <trkpt lat="45.64969539642334" lon="10.447998046875">
        <ele>267.6377897422911</ele>
        <time>2017-11-22T11:20:44.436000Z</time>
      </trkpt>
      <trkpt lat="45.64937353134155" lon="10.44825553894043">
        <ele>270.4020453047721</ele>
        <time>2017-11-22T11:20:45.027000Z</time>
      </trkpt>
      <trkpt lat="45.648838164340255" lon="10.448484840164864">
        <ele>280.257687713665</ele>
        <time>2017-11-22T11:20:45.923000Z</time>
      </trkpt>
      <trkpt lat="45.64883105456829" lon="10.448487885296345">
        <ele>280.2679810604663</ele>
        <time>2017-11-22T11:20:45.935000Z</time>
      </trkpt>
      <trkpt lat="45.64883113838732" lon="10.448487885296345">
        <ele>280.2680973126738</ele>
        <time>2017-11-22T11:20:45.935000Z</time>
      </trkpt>
      <trkpt lat="45.64862251281738" lon="10.448577404022217">
        <ele>280.5701858163832</ele>
        <time>2017-11-22T11:20:46.284000Z</time>
      </trkpt>
      <trkpt lat="45.648343563079834" lon="10.448770523071289">
        <ele>281.0</ele>
        <time>2017-11-22T11:20:46.781000Z</time>
      </trkpt>
      <trkpt lat="45.64793586730957" lon="10.449113845825195">
        <ele>274.0</ele>
        <time>2017-11-22T11:20:47.539000Z</time>
      </trkpt>
      <trkpt lat="45.647785663604736" lon="10.449371337890625">
        <ele>281.0</ele>
        <time>2017-11-22T11:20:47.915000Z</time>
      </trkpt>
      <trkpt lat="45.64744234085083" lon="10.450294017791748">
        <ele>277.6666666666667</ele>
        <time>2017-11-22T11:20:49.086000Z</time>
      </trkpt>
      <trkpt lat="45.64694881439209" lon="10.452182292938232">
        <ele>281.0</ele>
        <time>2017-11-22T11:20:51.345000Z</time>
      </trkpt>
      <trkpt lat="45.64540386199951" lon="10.456795692443848">
        <ele>269.0</ele>
        <time>2017-11-22T11:20:57.078000Z</time>
      </trkpt>
      <trkpt lat="45.64392328262329" lon="10.459692478179932">
        <ele>261.0</ele>
        <time>2017-11-22T11:21:01.100000Z</time>
      </trkpt>
      <trkpt lat="45.64345121383667" lon="10.460293292999268">
        <ele>262.0</ele>
        <time>2017-11-22T11:21:02.113000Z</time>
      </trkpt>
      <trkpt lat="45.6432580947876" lon="10.460550785064697">
        <ele>258.4864400718336</ele>
        <time>2017-11-22T11:21:02.536000Z</time>
      </trkpt>
      <trkpt lat="45.64317226409912" lon="10.460636615753174">
        <ele>258.41494859497124</ele>
        <time>2017-11-22T11:21:02.704000Z</time>
      </trkpt>
      <trkpt lat="45.643150806427" lon="10.460765361785889">
        <ele>258.35178183064505</ele>
        <time>2017-11-22T11:21:02.852000Z</time>
      </trkpt>
      <trkpt lat="45.64319372177124" lon="10.46097993850708">
        <ele>258.94679462267226</ele>
        <time>2017-11-22T11:21:03.102000Z</time>
      </trkpt>
      <trkpt lat="45.64327955245972" lon="10.461323261260986">
        <ele>258.82973482672963</ele>
        <time>2017-11-22T11:21:03.511000Z</time>
      </trkpt>
      <trkpt lat="45.64323663711548" lon="10.462868213653564">
        <ele>258.0</ele>
        <time>2017-11-22T11:21:05.244000Z</time>
      </trkpt>
      <trkpt lat="45.64319372177124" lon="10.463275909423828">
        <ele>257.9043823781289</ele>
        <time>2017-11-22T11:21:05.706000Z</time>
      </trkpt>
      <trkpt lat="45.643129432573915" lon="10.463511943817139">
        <ele>257.17896775012633</ele>
        <time>2017-11-22T11:21:05.990000Z</time>
      </trkpt>
      <trkpt lat="45.64319372177124" lon="10.463662147521973">
        <ele>257.4432666155926</ele>
        <time>2017-11-22T11:21:06.187000Z</time>
      </trkpt>
      <trkpt lat="45.64327955245972" lon="10.46422004699707">
        <ele>257.96720390758844</ele>
        <time>2017-11-22T11:21:06.827000Z</time>
      </trkpt>
      <trkpt lat="45.64340829849243" lon="10.464949607849121">
        <ele>261.76306041997935</ele>
        <time>2017-11-22T11:21:07.670000Z</time>
      </trkpt>
      <trkpt lat="45.643601417541504" lon="10.465679168701172">
        <ele>261.78049819392237</ele>
        <time>2017-11-22T11:21:08.544000Z</time>
      </trkpt>
      <trkpt lat="45.64385368532337" lon="10.466152284119877">
        <ele>262.69728109190936</ele>
        <time>2017-11-22T11:21:09.211000Z</time>
      </trkpt>
      <trkpt lat="45.64385781995952" lon="10.466160038486123">
        <ele>262.70138048630673</ele>
        <time>2017-11-22T11:21:09.222000Z</time>
      </trkpt>
      <trkpt lat="45.64385773614049" lon="10.466159787029028">
        <ele>262.7014975868756</ele>
        <time>2017-11-22T11:21:09.222000Z</time>
      </trkpt>
      <trkpt lat="45.64617642201483" lon="10.470507144927979">
        <ele>266.0</ele>
        <time>2017-11-22T11:21:15.350000Z</time>
      </trkpt>
      <trkpt lat="45.64671277999878" lon="10.471279621124268">
        <ele>265.0</ele>
        <time>2017-11-22T11:21:16.570000Z</time>
      </trkpt>
      <trkpt lat="45.6480432394892" lon="10.473060607910156">
        <ele>255.0</ele>
        <time>2017-11-22T11:21:19.491000Z</time>
      </trkpt>
      <trkpt lat="45.64877271652222" lon="10.47396183013916">
        <ele>258.0</ele>
        <time>2017-11-22T11:21:21.036000Z</time>
      </trkpt>
      <trkpt lat="45.64911603927612" lon="10.474240779876709">
        <ele>254.4502834525504</ele>
        <time>2017-11-22T11:21:21.669000Z</time>
      </trkpt>
      <trkpt lat="45.65001726150513" lon="10.47473430633545">
        <ele>257.25476553661036</ele>
        <time>2017-11-22T11:21:23.216000Z</time>
      </trkpt>
      <trkpt lat="45.65038204193115" lon="10.475249290466309">
        <ele>254.30723051422646</ele>
        <time>2017-11-22T11:21:24.038000Z</time>
      </trkpt>
      <trkpt lat="45.65042495727539" lon="10.475399494171143">
        <ele>254.2450674976569</ele>
        <time>2017-11-22T11:21:24.220000Z</time>
      </trkpt>
      <trkpt lat="45.650532245635986" lon="10.47544240951538">
        <ele>254.2879594208198</ele>
        <time>2017-11-22T11:21:24.399000Z</time>
      </trkpt>
      <trkpt lat="45.650832653045654" lon="10.475656986236572">
        <ele>254.4172363826248</ele>
        <time>2017-11-22T11:21:24.937000Z</time>
      </trkpt>
      <trkpt lat="45.65117597579956" lon="10.47621488571167">
        <ele>257.4925957987304</ele>
        <time>2017-11-22T11:21:25.770000Z</time>
      </trkpt>
      <trkpt lat="45.65136909484863" lon="10.476815700531006">
        <ele>259.6723349421253</ele>
        <time>2017-11-22T11:21:26.511000Z</time>
      </trkpt>
      <trkpt lat="45.65139055252075" lon="10.47722339630127">
        <ele>261.6805925218444</ele>
        <time>2017-11-22T11:21:26.969000Z</time>
      </trkpt>
      <trkpt lat="45.651068687438965" lon="10.479412078857422">
        <ele>280.0</ele>
        <time>2017-11-22T11:21:29.475000Z</time>
      </trkpt>
      <trkpt lat="45.65074690617621" lon="10.480570793151855">
        <ele>263.576587522651</ele>
        <time>2017-11-22T11:21:30.872000Z</time>
      </trkpt>
      <trkpt lat="45.65023192204535" lon="10.482244491577148">
        <ele>267.0</ele>
        <time>2017-11-22T11:21:32.921000Z</time>
      </trkpt>
      <trkpt lat="45.65001726150513" lon="10.483145713806152">
        <ele>263.49791223292624</ele>
        <time>2017-11-22T11:21:33.988000Z</time>
      </trkpt>
      <trkpt lat="45.6499529723078" lon="10.483531951904297">
        <ele>257.5651686579143</ele>
        <time>2017-11-22T11:21:34.433000Z</time>
      </trkpt>
      <trkpt lat="45.64995288848877" lon="10.483531951904297">
        <ele>257.56524016923595</ele>
        <time>2017-11-22T11:21:34.433000Z</time>
      </trkpt>
      <trkpt lat="45.649888599291444" lon="10.483832359313965">
        <ele>257.75260982063713</ele>
        <time>2017-11-22T11:21:34.785000Z</time>
      </trkpt>
      <trkpt lat="45.64973831176758" lon="10.48496961593628">
        <ele>259.44288338631134</ele>
        <time>2017-11-22T11:21:36.082000Z</time>
      </trkpt>
      <trkpt lat="45.64973839558661" lon="10.485506057739258">
        <ele>263.3463791568064</ele>
        <time>2017-11-22T11:21:36.683000Z</time>
      </trkpt>
      <trkpt lat="45.64973831176758" lon="10.485506057739258">
        <ele>263.34657473851195</ele>
        <time>2017-11-22T11:21:36.683000Z</time>
      </trkpt>
      <trkpt lat="45.649824142456055" lon="10.486664772033691">
        <ele>265.247170511325</ele>
        <time>2017-11-22T11:21:37.989000Z</time>
      </trkpt>
      <trkpt lat="45.649802684783936" lon="10.487329959869385">
        <ele>267.0</ele>
        <time>2017-11-22T11:21:38.735000Z</time>
      </trkpt>
      <trkpt lat="45.64972203765845" lon="10.48832815556537">
        <ele>264.5544426683498</ele>
        <time>2017-11-22T11:21:39.861000Z</time>
      </trkpt>
      <trkpt lat="45.64972138032317" lon="10.48833629116416">
        <ele>264.22019467458426</ele>
        <time>2017-11-22T11:21:39.870000Z</time>
      </trkpt>
      <trkpt lat="45.64972138032317" lon="10.488336039707065">
        <ele>264.2201665910015</ele>
        <time>2017-11-22T11:21:39.870000Z</time>
      </trkpt>
      <trkpt lat="45.64963102340698" lon="10.48945426940918">
        <ele>266.0944476861442</ele>
        <time>2017-11-22T11:21:41.132000Z</time>
      </trkpt>
      <trkpt lat="45.64950227737427" lon="10.490634441375732">
        <ele>269.0</ele>
        <time>2017-11-22T11:21:42.471000Z</time>
      </trkpt>
      <trkpt lat="45.649352073669434" lon="10.491406917572021">
        <ele>267.86236844570675</ele>
        <time>2017-11-22T11:21:43.370000Z</time>
      </trkpt>
      <trkpt lat="45.64862251281738" lon="10.493896007537842">
        <ele>255.0</ele>
        <time>2017-11-22T11:21:46.395000Z</time>
      </trkpt>
      <trkpt lat="45.64849376678467" lon="10.494260787963867">
        <ele>263.54221386365435</ele>
        <time>2017-11-22T11:21:46.853000Z</time>
      </trkpt>
      <trkpt lat="45.64819344319403" lon="10.494754314422607">
        <ele>254.74214745162718</ele>
        <time>2017-11-22T11:21:47.586000Z</time>
      </trkpt>
      <trkpt lat="45.648193359375" lon="10.494754314422607">
        <ele>254.74193975910023</ele>
        <time>2017-11-22T11:21:47.586000Z</time>
      </trkpt>
      <trkpt lat="45.647893035784364" lon="10.495312213897705">
        <ele>256.85556550913265</ele>
        <time>2017-11-22T11:21:48.375000Z</time>
      </trkpt>
      <trkpt lat="45.64673432148993" lon="10.497329235076904">
        <ele>251.0</ele>
        <time>2017-11-22T11:21:51.301000Z</time>
      </trkpt>
      <trkpt lat="45.64666994847357" lon="10.49741506576538">
        <ele>250.9797377287127</ele>
        <time>2017-11-22T11:21:51.442000Z</time>
      </trkpt>
      <trkpt lat="45.646090507507324" lon="10.49917459487915">
        <ele>250.0</ele>
        <time>2017-11-22T11:21:53.622000Z</time>
      </trkpt>
      <trkpt lat="45.64602613449097" lon="10.499517917633057">
        <ele>250.76577843985913</ele>
        <time>2017-11-22T11:21:54.020000Z</time>
      </trkpt>
      <trkpt lat="45.646090591326356" lon="10.50018310546875">
        <ele>254.5458605261779</ele>
        <time>2017-11-22T11:21:54.773000Z</time>
      </trkpt>
      <trkpt lat="45.646090507507324" lon="10.50018310546875">
        <ele>254.54566946008939</ele>
        <time>2017-11-22T11:21:54.773000Z</time>
      </trkpt>
      <trkpt lat="45.64617642201483" lon="10.501985549926758">
        <ele>249.0</ele>
        <time>2017-11-22T11:21:56.798000Z</time>
      </trkpt>
      <trkpt lat="45.64617642201483" lon="10.502650737762451">
        <ele>245.46513378220402</ele>
        <time>2017-11-22T11:21:57.543000Z</time>
      </trkpt>
      <trkpt lat="45.64617642201483" lon="10.502779483795166">
        <ele>245.23257903037253</ele>
        <time>2017-11-22T11:21:57.687000Z</time>
      </trkpt>
      <trkpt lat="45.6461763381958" lon="10.5029296875">
        <ele>244.96126506639214</ele>
        <time>2017-11-22T11:21:57.855000Z</time>
      </trkpt>
      <trkpt lat="45.6461763381958" lon="10.503058433532715">
        <ele>244.7287103142127</ele>
        <time>2017-11-22T11:21:57.999000Z</time>
      </trkpt>
      <trkpt lat="45.6461473024461" lon="10.503261763618612">
        <ele>244.3538496764843</ele>
        <time>2017-11-22T11:21:58.232000Z</time>
      </trkpt>
      <trkpt lat="45.646145828068256" lon="10.503272088244557">
        <ele>244.33481512464763</ele>
        <time>2017-11-22T11:21:58.244000Z</time>
      </trkpt>
      <trkpt lat="45.64614591188729" lon="10.503271836787462">
        <ele>244.33431192580187</ele>
        <time>2017-11-22T11:21:58.244000Z</time>
      </trkpt>
      <trkpt lat="45.646069049835205" lon="10.503809452056885">
        <ele>244.3431136150863</ele>
        <time>2017-11-22T11:21:58.859000Z</time>
      </trkpt>
      <trkpt lat="45.6457257270813" lon="10.504603385925293">
        <ele>241.37516919784198</ele>
        <time>2017-11-22T11:21:59.905000Z</time>
      </trkpt>
      <trkpt lat="45.645382488146424" lon="10.50492525100708">
        <ele>241.11996299035732</ele>
        <time>2017-11-22T11:22:00.563000Z</time>
      </trkpt>
      <trkpt lat="45.64497470855713" lon="10.505118370056152">
        <ele>241.85286261520142</ele>
        <time>2017-11-22T11:22:01.252000Z</time>
      </trkpt>
      <trkpt lat="45.64457609868933" lon="10.50517798909342">
        <ele>241.55743684650028</ele>
        <time>2017-11-22T11:22:01.895000Z</time>
      </trkpt>
      <trkpt lat="45.64456785097718" lon="10.505179222673178">
        <ele>241.55132413653337</ele>
        <time>2017-11-22T11:22:01.908000Z</time>
      </trkpt>
      <trkpt lat="45.644567934796214" lon="10.505179222673178">
        <ele>241.551262351731</ele>
        <time>2017-11-22T11:22:01.908000Z</time>
      </trkpt>
      <trkpt lat="45.644545555114746" lon="10.50518274307251">
        <ele>241.53466635603266</ele>
        <time>2017-11-22T11:22:01.944000Z</time>
      </trkpt>
      <trkpt lat="45.64201354980469" lon="10.505332946777344">
        <ele>238.0</ele>
        <time>2017-11-22T11:22:06.007000Z</time>
      </trkpt>
      <trkpt lat="45.641841888427734" lon="10.505247116088867">
        <ele>238.0</ele>
        <time>2017-11-22T11:22:06.299000Z</time>
      </trkpt>
      <trkpt lat="45.64179905690253" lon="10.505204200744629">
        <ele>238.03117797254012</ele>
        <time>2017-11-22T11:22:06.383000Z</time>
      </trkpt>
      <trkpt lat="45.64171314239502" lon="10.505247116088867">
        <ele>238.08543333470695</ele>
        <time>2017-11-22T11:22:06.529000Z</time>
      </trkpt>
      <trkpt lat="45.641584396362305" lon="10.505397319793701">
        <ele>238.18448669525193</ele>
        <time>2017-11-22T11:22:06.795000Z</time>
      </trkpt>
      <trkpt lat="45.64076900482178" lon="10.505611896514893">
        <ele>240.19240122671408</ele>
        <time>2017-11-22T11:22:08.124000Z</time>
      </trkpt>
      <trkpt lat="45.640125358477235" lon="10.506041049957275">
        <ele>248.4354959044401</ele>
        <time>2017-11-22T11:22:09.262000Z</time>
      </trkpt>
      <trkpt lat="45.6401252746582" lon="10.506041049957275">
        <ele>248.43536521730297</ele>
        <time>2017-11-22T11:22:09.262000Z</time>
      </trkpt>
      <trkpt lat="45.6397819519043" lon="10.506298542022705">
        <ele>244.49760620697967</ele>
        <time>2017-11-22T11:22:09.883000Z</time>
      </trkpt>
      <trkpt lat="45.63853749074042" lon="10.506899356842041">
        <ele>241.06994159005762</ele>
        <time>2017-11-22T11:22:11.989000Z</time>
      </trkpt>
      <trkpt lat="45.636627757921815" lon="10.507800579071045">
        <ele>240.0</ele>
        <time>2017-11-22T11:22:15.213000Z</time>
      </trkpt>
      <trkpt lat="45.63662767410278" lon="10.507800579071045">
        <ele>240.00002312783417</ele>
        <time>2017-11-22T11:22:15.213000Z</time>
      </trkpt>
      <trkpt lat="45.63600548543036" lon="10.508015155792236">
        <ele>240.3532330382155</ele>
        <time>2017-11-22T11:22:16.239000Z</time>
      </trkpt>
      <trkpt lat="45.63588619796989" lon="10.507983193972917">
        <ele>240.42020964517067</ele>
        <time>2017-11-22T11:22:16.434000Z</time>
      </trkpt>
      <trkpt lat="45.635878164321184" lon="10.507981041446328">
        <ele>240.4247203161976</ele>
        <time>2017-11-22T11:22:16.447000Z</time>
      </trkpt>
      <trkpt lat="45.635878248140216" lon="10.507981041446328">
        <ele>240.42476657347072</ele>
        <time>2017-11-22T11:22:16.447000Z</time>
      </trkpt>
      <trkpt lat="45.63544750213623" lon="10.507864952087402">
        <ele>241.0</ele>
        <time>2017-11-22T11:22:17.150000Z</time>
      </trkpt>
      <trkpt lat="45.63437461853027" lon="10.507307052612305">
        <ele>238.6033300465879</ele>
        <time>2017-11-22T11:22:18.980000Z</time>
      </trkpt>
      <trkpt lat="45.6341814994812" lon="10.507071018218994">
        <ele>238.00665817258277</ele>
        <time>2017-11-22T11:22:19.387000Z</time>
      </trkpt>
      <trkpt lat="45.63396692276001" lon="10.506598949432373">
        <ele>236.08194312277035</ele>
        <time>2017-11-22T11:22:20.018000Z</time>
      </trkpt>
      <trkpt lat="45.6339240912348" lon="10.506556034088135">
        <ele>236.00782060867292</ele>
        <time>2017-11-22T11:22:20.102000Z</time>
      </trkpt>
      <trkpt lat="45.633838176727295" lon="10.506491661071777">
        <ele>235.8703517746233</ele>
        <time>2017-11-22T11:22:20.257000Z</time>
      </trkpt>
      <trkpt lat="45.63373097218573" lon="10.506513118743896">
        <ele>235.71692722111334</ele>
        <time>2017-11-22T11:22:20.431000Z</time>
      </trkpt>
      <trkpt lat="45.63370943069458" lon="10.506534576416016">
        <ele>235.67971983314155</ele>
        <time>2017-11-22T11:22:20.473000Z</time>
      </trkpt>
      <trkpt lat="45.63347339630127" lon="10.506620407104492">
        <ele>235.334537319781</ele>
        <time>2017-11-22T11:22:20.863000Z</time>
      </trkpt>
      <trkpt lat="45.63323736190796" lon="10.506620407104492">
        <ele>234.0</ele>
        <time>2017-11-22T11:22:21.241000Z</time>
      </trkpt>
      <trkpt lat="45.6323320101159" lon="10.506135287353718">
        <ele>238.0914010774892</ele>
        <time>2017-11-22T11:22:22.791000Z</time>
      </trkpt>
      <trkpt lat="45.632323985919356" lon="10.506130987778306">
        <ele>238.10698292223688</ele>
        <time>2017-11-22T11:22:22.805000Z</time>
      </trkpt>
      <trkpt lat="45.63232381828129" lon="10.506130903959274">
        <ele>238.1073058512046</ele>
        <time>2017-11-22T11:22:22.805000Z</time>
      </trkpt>
      <trkpt lat="45.63203573226929" lon="10.505976676940918">
        <ele>238.66666666666666</ele>
        <time>2017-11-22T11:22:23.298000Z</time>
      </trkpt>
      <trkpt lat="45.63203581608832" lon="10.505976676940918">
        <ele>238.6665829266312</ele>
        <time>2017-11-22T11:22:23.299000Z</time>
      </trkpt>
      <trkpt lat="45.63141345977783" lon="10.50565481185913">
        <ele>236.67206944280932</ele>
        <time>2017-11-22T11:22:24.360000Z</time>
      </trkpt>
      <trkpt lat="45.631113052368164" lon="10.505483150482178">
        <ele>236.0973272177321</ele>
        <time>2017-11-22T11:22:24.879000Z</time>
      </trkpt>
      <trkpt lat="45.630834102630615" lon="10.50518274307251">
        <ele>235.47692803744278</ele>
        <time>2017-11-22T11:22:25.439000Z</time>
      </trkpt>
      <trkpt lat="45.630340576171875" lon="10.504260063171387">
        <ele>233.65661968323403</ele>
        <time>2017-11-22T11:22:26.741000Z</time>
      </trkpt>
      <trkpt lat="45.629748126538644" lon="10.502956623810121">
        <ele>230.0</ele>
        <time>2017-11-22T11:22:28.484000Z</time>
      </trkpt>
      <trkpt lat="45.629744455218315" lon="10.502948546782136">
        <ele>229.99906624044038</ele>
        <time>2017-11-22T11:22:28.495000Z</time>
      </trkpt>
      <trkpt lat="45.62974437139928" lon="10.50294829532504">
        <ele>229.99903923929062</ele>
        <time>2017-11-22T11:22:28.495000Z</time>
      </trkpt>
      <trkpt lat="45.62969692982733" lon="10.502843856811523">
        <ele>229.9869676744062</ele>
        <time>2017-11-22T11:22:28.635000Z</time>
      </trkpt>
      <trkpt lat="45.62920331954956" lon="10.50217866897583">
        <ele>229.55962167254503</ele>
        <time>2017-11-22T11:22:29.722000Z</time>
      </trkpt>
      <trkpt lat="45.62920340336859" lon="10.50217866897583">
        <ele>229.55970200354363</ele>
        <time>2017-11-22T11:22:29.722000Z</time>
      </trkpt>
      <trkpt lat="45.62802314758301" lon="10.500848293304443">
        <ele>232.0</ele>
        <time>2017-11-22T11:22:32.131000Z</time>
      </trkpt>
      <trkpt lat="45.627658450976014" lon="10.500483512878418">
        <ele>232.14839909027285</ele>
        <time>2017-11-22T11:22:32.844000Z</time>
      </trkpt>
      <trkpt lat="45.62699326314032" lon="10.499882698059082">
        <ele>234.0</ele>
        <time>2017-11-22T11:22:34.105000Z</time>
      </trkpt>
      <trkpt lat="45.6267507274592" lon="10.499688604460852">
        <ele>234.15156451526965</ele>
        <time>2017-11-22T11:22:34.551000Z</time>
      </trkpt>
      <trkpt lat="45.62674314714968" lon="10.499682538211346">
        <ele>234.15630156903202</ele>
        <time>2017-11-22T11:22:34.565000Z</time>
      </trkpt>
      <trkpt lat="45.62674306333065" lon="10.499682454392314">
        <ele>234.15635734587394</ele>
        <time>2017-11-22T11:22:34.565000Z</time>
      </trkpt>
      <trkpt lat="45.626671398058534" lon="10.499625205993652">
        <ele>234.20112298411004</ele>
        <time>2017-11-22T11:22:34.697000Z</time>
      </trkpt>
      <trkpt lat="45.62645673751831" lon="10.4994535446167">
        <ele>235.33524482956182</ele>
        <time>2017-11-22T11:22:35.091000Z</time>
      </trkpt>
      <trkpt lat="45.62645682133734" lon="10.4994535446167">
        <ele>235.33529053811867</ele>
        <time>2017-11-22T11:22:35.091000Z</time>
      </trkpt>
      <trkpt lat="45.62624216079712" lon="10.499281883239746">
        <ele>235.46941224521265</ele>
        <time>2017-11-22T11:22:35.485000Z</time>
      </trkpt>
      <trkpt lat="45.62624224461615" lon="10.499281883239746">
        <ele>235.46919075881476</ele>
        <time>2017-11-22T11:22:35.485000Z</time>
      </trkpt>
      <trkpt lat="45.626113414764404" lon="10.499153137207031">
        <ele>234.05386760135897</ele>
        <time>2017-11-22T11:22:35.737000Z</time>
      </trkpt>
      <trkpt lat="45.625576972961426" lon="10.498788356781006">
        <ele>232.4842309028685</ele>
        <time>2017-11-22T11:22:36.689000Z</time>
      </trkpt>
      <trkpt lat="45.62553405761719" lon="10.49870252609253">
        <ele>232.28924927435412</ele>
        <time>2017-11-22T11:22:36.807000Z</time>
      </trkpt>
      <trkpt lat="45.62544822692871" lon="10.498251914978027">
        <ele>230.0928642810679</ele>
        <time>2017-11-22T11:22:37.331000Z</time>
      </trkpt>
      <trkpt lat="45.62544831074774" lon="10.498230457305908">
        <ele>230.08769850388626</ele>
        <time>2017-11-22T11:22:37.355000Z</time>
      </trkpt>
      <trkpt lat="45.625362480059266" lon="10.498080253601074">
        <ele>230.04100276408658</ele>
        <time>2017-11-22T11:22:37.572000Z</time>
      </trkpt>
      <trkpt lat="45.625340938568115" lon="10.498058795928955">
        <ele>230.04814777003892</ele>
        <time>2017-11-22T11:22:37.614000Z</time>
      </trkpt>
      <trkpt lat="45.6252121925354" lon="10.497908592224121">
        <ele>230.0933702439717</ele>
        <time>2017-11-22T11:22:37.880000Z</time>
      </trkpt>
      <trkpt lat="45.625169361010194" lon="10.49769401550293">
        <ele>230.13584243400837</ele>
        <time>2017-11-22T11:22:38.130000Z</time>
      </trkpt>
      <trkpt lat="45.62514528974046" lon="10.497405321093282">
        <ele>230.5245132247991</ele>
        <time>2017-11-22T11:22:38.456000Z</time>
      </trkpt>
      <trkpt lat="45.62514429911971" lon="10.497393440455198">
        <ele>230.52679052717542</ele>
        <time>2017-11-22T11:22:38.469000Z</time>
      </trkpt>
      <trkpt lat="45.62514429911971" lon="10.497393608093262">
        <ele>230.52682243436524</ele>
        <time>2017-11-22T11:22:38.469000Z</time>
      </trkpt>
      <trkpt lat="45.625083446502686" lon="10.496664047241211">
        <ele>230.66666666666666</ele>
        <time>2017-11-22T11:22:39.293000Z</time>
      </trkpt>
      <trkpt lat="45.62501907348633" lon="10.496470928192139">
        <ele>230.6355941577775</ele>
        <time>2017-11-22T11:22:39.533000Z</time>
      </trkpt>
      <trkpt lat="45.62493332661688" lon="10.49619197845459">
        <ele>232.25800408168402</ele>
        <time>2017-11-22T11:22:39.875000Z</time>
      </trkpt>
      <trkpt lat="45.62482603825629" lon="10.495977401733398">
        <ele>232.21969207361997</ele>
        <time>2017-11-22T11:22:40.171000Z</time>
      </trkpt>
      <trkpt lat="45.6242036819458" lon="10.494754314422607">
        <ele>230.0</ele>
        <time>2017-11-22T11:22:41.867000Z</time>
      </trkpt>
      <trkpt lat="45.62420376576483" lon="10.494754314422607">
        <ele>230.0000321913727</ele>
        <time>2017-11-22T11:22:41.868000Z</time>
      </trkpt>
      <trkpt lat="45.624117851257324" lon="10.494539737701416">
        <ele>230.3997769028124</ele>
        <time>2017-11-22T11:22:42.145000Z</time>
      </trkpt>
      <trkpt lat="45.624117935076356" lon="10.494539737701416">
        <ele>230.39980909418503</ele>
        <time>2017-11-22T11:22:42.145000Z</time>
      </trkpt>
      <trkpt lat="45.62407374357011" lon="10.494444039694619">
        <ele>230.43061093163</ele>
        <time>2017-11-22T11:22:42.274000Z</time>
      </trkpt>
      <trkpt lat="45.62406881712377" lon="10.49443337135017">
        <ele>230.43404470031405</ele>
        <time>2017-11-22T11:22:42.288000Z</time>
      </trkpt>
      <trkpt lat="45.62406864948571" lon="10.494433119893074">
        <ele>230.43413801076727</ele>
        <time>2017-11-22T11:22:42.288000Z</time>
      </trkpt>
      <trkpt lat="45.62373161315918" lon="10.49370288848877">
        <ele>230.00247217783053</ele>
        <time>2017-11-22T11:22:43.269000Z</time>
      </trkpt>
      <trkpt lat="45.62373169697821" lon="10.49370288848877">
        <ele>230.00250436920317</ele>
        <time>2017-11-22T11:22:43.269000Z</time>
      </trkpt>
      <trkpt lat="45.623366916552186" lon="10.492587089538574">
        <ele>231.0</ele>
        <time>2017-11-22T11:22:44.650000Z</time>
      </trkpt>
      <trkpt lat="45.62319525517523" lon="10.492050647735596">
        <ele>231.33656994708062</ele>
        <time>2017-11-22T11:22:45.311000Z</time>
      </trkpt>
      <trkpt lat="45.622965995963646" lon="10.491057716229557">
        <ele>233.114806837712</ele>
        <time>2017-11-22T11:22:46.483000Z</time>
      </trkpt>
      <trkpt lat="45.62296357937157" lon="10.49104725010693">
        <ele>233.17587268362388</ele>
        <time>2017-11-22T11:22:46.495000Z</time>
      </trkpt>
      <trkpt lat="45.62296349555254" lon="10.491046998649836">
        <ele>233.17741602587603</ele>
        <time>2017-11-22T11:22:46.495000Z</time>
      </trkpt>
      <trkpt lat="45.62293767929077" lon="10.4909348487854">
        <ele>233.8315727757794</ele>
        <time>2017-11-22T11:22:46.627000Z</time>
      </trkpt>
      <trkpt lat="45.62280893325806" lon="10.490612983703613">
        <ele>239.21926417518804</ele>
        <time>2017-11-22T11:22:47.043000Z</time>
      </trkpt>
      <trkpt lat="45.62167167663574" lon="10.488574504852295">
        <ele>261.0</ele>
        <time>2017-11-22T11:22:49.967000Z</time>
      </trkpt>
      <trkpt lat="45.62119969166815" lon="10.487544536590576">
        <ele>237.0</ele>
        <time>2017-11-22T11:22:51.348000Z</time>
      </trkpt>
      <trkpt lat="45.62048952448138" lon="10.485962849578746">
        <ele>231.73815986185275</ele>
        <time>2017-11-22T11:22:53.455000Z</time>
      </trkpt>
      <trkpt lat="45.620485469698906" lon="10.485953819006681">
        <ele>231.77519403541706</ele>
        <time>2017-11-22T11:22:53.467000Z</time>
      </trkpt>
      <trkpt lat="45.620485385879874" lon="10.48595373518765">
        <ele>231.7756987352518</ele>
        <time>2017-11-22T11:22:53.467000Z</time>
      </trkpt>
      <trkpt lat="45.62025555409491" lon="10.4854416847229">
        <ele>236.2087203595551</ele>
        <time>2017-11-22T11:22:54.149000Z</time>
      </trkpt>
      <trkpt lat="45.61965465545654" lon="10.48396110534668">
        <ele>233.0</ele>
        <time>2017-11-22T11:22:56.068000Z</time>
      </trkpt>
      <trkpt lat="45.61939716339111" lon="10.48370361328125">
        <ele>232.43485409112677</ele>
        <time>2017-11-22T11:22:56.572000Z</time>
      </trkpt>
      <trkpt lat="45.61890363693237" lon="10.483553409576416">
        <ele>229.19400261048338</ele>
        <time>2017-11-22T11:22:57.381000Z</time>
      </trkpt>
      <trkpt lat="45.61713849590778" lon="10.483274602206253">
        <ele>226.0</ele>
        <time>2017-11-22T11:23:00.228000Z</time>
      </trkpt>
      <trkpt lat="45.617127511650324" lon="10.483272867277265">
        <ele>225.99132805166803</ele>
        <time>2017-11-22T11:23:00.246000Z</time>
      </trkpt>
      <trkpt lat="45.61712734401226" lon="10.483272867277265">
        <ele>225.9910640943981</ele>
        <time>2017-11-22T11:23:00.246000Z</time>
      </trkpt>
      <trkpt lat="45.616865241900086" lon="10.483231544494629">
        <ele>225.57586516192157</ele>
        <time>2017-11-22T11:23:00.669000Z</time>
      </trkpt>
      <trkpt lat="45.61630734242499" lon="10.483145713806152">
        <ele>223.35901056111274</ele>
        <time>2017-11-22T11:23:01.569000Z</time>
      </trkpt>
      <trkpt lat="45.61544895172119" lon="10.483016967773438">
        <ele>222.0</ele>
        <time>2017-11-22T11:23:02.953000Z</time>
      </trkpt>
      <trkpt lat="45.61444044113159" lon="10.482566356658936">
        <ele>225.18198035291974</ele>
        <time>2017-11-22T11:23:04.647000Z</time>
      </trkpt>
      <trkpt lat="45.61444052495062" lon="10.482566356658936">
        <ele>225.1819931180885</ele>
        <time>2017-11-22T11:23:04.647000Z</time>
      </trkpt>
      <trkpt lat="45.61416149139404" lon="10.48243761062622">
        <ele>224.89331343500274</ele>
        <time>2017-11-22T11:23:05.117000Z</time>
      </trkpt>
      <trkpt lat="45.61356067657471" lon="10.481922626495361">
        <ele>225.0</ele>
        <time>2017-11-22T11:23:06.240000Z</time>
      </trkpt>
      <trkpt lat="45.61274536885321" lon="10.481557846069336">
        <ele>221.94320098329231</ele>
        <time>2017-11-22T11:23:07.610000Z</time>
      </trkpt>
      <trkpt lat="45.61248779296875" lon="10.481407642364502">
        <ele>221.38200119100725</ele>
        <time>2017-11-22T11:23:08.056000Z</time>
      </trkpt>
      <trkpt lat="45.61210163868964" lon="10.481064319610596">
        <ele>221.0</ele>
        <time>2017-11-22T11:23:08.785000Z</time>
      </trkpt>
      <trkpt lat="45.61205863952637" lon="10.480999946594238">
        <ele>221.0</ele>
        <time>2017-11-22T11:23:08.885000Z</time>
      </trkpt>
      <trkpt lat="45.61197051738166" lon="10.480836335990547">
        <ele>221.0</ele>
        <time>2017-11-22T11:23:09.117000Z</time>
      </trkpt>
    </trkseg>
  </trk>
</gpx>